<?xml version="1.0" encoding="UTF-8" standalone="no" ?>
<gpx xmlns="http://www.topografix.com/GPX/1/1" xmlns:xsi="http://www.w3.org/2001/XMLSchema-instance" xsi:schemaLocation="http://www.topografix.com/GPX/1/1 http://www.topografix.com/GPX/1/1/gpx.xsd" version="1.1" creator="VisuGPX - https://www.visugpx.com">
  <metadata>
    <name>Haut Jura</name>
    <desc><![CDATA[
Randonnées ]]></desc>
  </metadata>
  <wpt lat="46.53494" lon="5.92031">
    <ele>877.0546875</ele>
    <name><![CDATA[Abbaye En Grandvaux]]></name>
    <desc><![CDATA[Abbaye En Grandvaux]]></desc>
    <cmt><![CDATA[Abbaye En Grandvaux]]></cmt>
    <type><![CDATA[user]]></type>
  </wpt>
  <wpt lat="46.51158" lon="5.83825">
    <ele>913.7890625</ele>
    <name><![CDATA[Cap France Le Duchet]]></name>
    <type><![CDATA[user]]></type>
  </wpt>
  <wpt lat="46.61466" lon="5.86872">
    <ele>710.71875</ele>
    <name><![CDATA[Cascade du hérisson]]></name>
    <type><![CDATA[user]]></type>
  </wpt>
  <wpt lat="46.5758" lon="5.75141">
    <ele>542.484375</ele>
    <name><![CDATA[Clairvaux-Les-Lacs]]></name>
    <type><![CDATA[user]]></type>
  </wpt>
  <wpt lat="46.61757" lon="5.88041">
    <ele>769.328125</ele>
    <name><![CDATA[La Fromagerie]]></name>
    <type><![CDATA[user]]></type>
  </wpt>
  <wpt lat="46.61364" lon="5.85054">
    <ele>534.63671875</ele>
    <name><![CDATA[Maison Des Cascades Du Hérisson]]></name>
    <desc><![CDATA[Maison Des Cascades Du Hérisson]]></desc>
    <cmt><![CDATA[Maison Des Cascades Du Hérisson]]></cmt>
    <type><![CDATA[user]]></type>
  </wpt>
  <wpt lat="46.6097" lon="5.9042">
    <ele>943</ele>
    <name><![CDATA[Parking du Pic de l'Aigle]]></name>
    <type><![CDATA[user]]></type>
  </wpt>
  <wpt lat="46.61803" lon="5.8822">
    <ele>770.25390625</ele>
    <name><![CDATA[Parking La Fromagerie]]></name>
    <desc><![CDATA[L'Éolienne]]></desc>
    <cmt><![CDATA[L'Éolienne]]></cmt>
    <type><![CDATA[user]]></type>
  </wpt>
  <wpt lat="46.61466" lon="5.90166">
    <ele>955.24609375</ele>
    <name><![CDATA[Pic de l'Aigle]]></name>
    <type><![CDATA[user]]></type>
  </wpt>
  <wpt lat="46.51203" lon="5.84005">
    <ele>906.57421875</ele>
    <name><![CDATA[Prénovel]]></name>
    <type><![CDATA[user]]></type>
  </wpt>
  <wpt lat="46.57526" lon="5.95631">
    <ele>911.5625</ele>
    <name><![CDATA[Saint-Laurent-En-Grandvaux]]></name>
    <type><![CDATA[user]]></type>
  </wpt>
  <trk>
    <name><![CDATA[J1 - La Tourbière de Prénovel_R]]></name>
    <trkseg>
      <trkpt lat="46.51192" lon="5.83859">
        <ele>906.87</ele>
        <time>2019-11-13T08:39:43Z</time>
      </trkpt>
      <trkpt lat="46.51189" lon="5.83867">
        <ele>903.66</ele>
        <time>2019-11-13T08:41:33Z</time>
      </trkpt>
      <trkpt lat="46.51187" lon="5.83873">
        <ele>903.7</ele>
        <time>2019-11-13T08:41:49Z</time>
      </trkpt>
      <trkpt lat="46.51183" lon="5.83885">
        <ele>906.16</ele>
        <time>2019-11-13T08:42:09Z</time>
      </trkpt>
      <trkpt lat="46.5118" lon="5.83896">
        <ele>906.03</ele>
        <time>2019-11-13T08:42:25Z</time>
      </trkpt>
      <trkpt lat="46.51171" lon="5.83915">
        <ele>905.04</ele>
        <time>2019-11-13T08:42:43Z</time>
      </trkpt>
      <trkpt lat="46.51165" lon="5.83937">
        <ele>904.39</ele>
        <time>2019-11-13T08:42:52Z</time>
      </trkpt>
      <trkpt lat="46.5116" lon="5.83961">
        <ele>903.59</ele>
        <time>2019-11-13T08:43:07Z</time>
      </trkpt>
      <trkpt lat="46.51158" lon="5.83965">
        <ele>902.76</ele>
        <time>2019-11-13T08:43:25Z</time>
      </trkpt>
      <trkpt lat="46.51155" lon="5.83967">
        <ele>902.64</ele>
        <time>2019-11-13T08:43:36Z</time>
      </trkpt>
      <trkpt lat="46.51149" lon="5.83961">
        <ele>902.29</ele>
        <time>2019-11-13T08:43:43Z</time>
      </trkpt>
      <trkpt lat="46.51141" lon="5.83963">
        <ele>902.26</ele>
        <time>2019-11-13T08:43:56Z</time>
      </trkpt>
      <trkpt lat="46.51139" lon="5.83969">
        <ele>902.47</ele>
        <time>2019-11-13T08:44:00Z</time>
      </trkpt>
      <trkpt lat="46.51128" lon="5.83989">
        <ele>902.55</ele>
        <time>2019-11-13T08:44:18Z</time>
      </trkpt>
      <trkpt lat="46.51122" lon="5.8399">
        <ele>902.99</ele>
        <time>2019-11-13T08:44:26Z</time>
      </trkpt>
      <trkpt lat="46.51121" lon="5.83992">
        <ele>903.43</ele>
        <time>2019-11-13T08:44:41Z</time>
      </trkpt>
      <trkpt lat="46.51124" lon="5.83994">
        <ele>902.89</ele>
        <time>2019-11-13T08:44:44Z</time>
      </trkpt>
      <trkpt lat="46.5113" lon="5.84005">
        <ele>903.53</ele>
        <time>2019-11-13T08:45:01Z</time>
      </trkpt>
      <trkpt lat="46.51123" lon="5.84014">
        <ele>903.54</ele>
        <time>2019-11-13T08:45:25Z</time>
      </trkpt>
      <trkpt lat="46.51122" lon="5.84022">
        <ele>903.63</ele>
        <time>2019-11-13T08:45:53Z</time>
      </trkpt>
      <trkpt lat="46.51119" lon="5.84027">
        <ele>903.59</ele>
        <time>2019-11-13T08:47:09Z</time>
      </trkpt>
      <trkpt lat="46.51122" lon="5.84023">
        <ele>903.58</ele>
        <time>2019-11-13T08:47:24Z</time>
      </trkpt>
      <trkpt lat="46.51126" lon="5.84017">
        <ele>903.59</ele>
        <time>2019-11-13T08:47:44Z</time>
      </trkpt>
      <trkpt lat="46.51132" lon="5.84006">
        <ele>903.23</ele>
        <time>2019-11-13T08:48:04Z</time>
      </trkpt>
      <trkpt lat="46.51139" lon="5.84004">
        <ele>902.97</ele>
        <time>2019-11-13T08:48:18Z</time>
      </trkpt>
      <trkpt lat="46.51143" lon="5.84003">
        <ele>904.71</ele>
        <time>2019-11-13T08:48:22Z</time>
      </trkpt>
      <trkpt lat="46.51147" lon="5.84">
        <ele>902.55</ele>
        <time>2019-11-13T08:48:27Z</time>
      </trkpt>
      <trkpt lat="46.51159" lon="5.84002">
        <ele>901.47</ele>
        <time>2019-11-13T08:48:43Z</time>
      </trkpt>
      <trkpt lat="46.51164" lon="5.84002">
        <ele>900.88</ele>
        <time>2019-11-13T08:48:56Z</time>
      </trkpt>
      <trkpt lat="46.51168" lon="5.84">
        <ele>899.75</ele>
        <time>2019-11-13T08:49:09Z</time>
      </trkpt>
      <trkpt lat="46.51185" lon="5.83991">
        <ele>897.89</ele>
        <time>2019-11-13T08:49:27Z</time>
      </trkpt>
      <trkpt lat="46.51199" lon="5.83981">
        <ele>896.62</ele>
        <time>2019-11-13T08:49:44Z</time>
      </trkpt>
      <trkpt lat="46.51218" lon="5.83976">
        <ele>896.02</ele>
        <time>2019-11-13T08:49:59Z</time>
      </trkpt>
      <trkpt lat="46.51226" lon="5.83964">
        <ele>896.69</ele>
        <time>2019-11-13T08:50:10Z</time>
      </trkpt>
      <trkpt lat="46.51236" lon="5.8396">
        <ele>897.53</ele>
        <time>2019-11-13T08:50:27Z</time>
      </trkpt>
      <trkpt lat="46.51238" lon="5.83962">
        <ele>897.48</ele>
        <time>2019-11-13T08:50:30Z</time>
      </trkpt>
      <trkpt lat="46.51242" lon="5.83969">
        <ele>897.28</ele>
        <time>2019-11-13T08:50:37Z</time>
      </trkpt>
      <trkpt lat="46.51248" lon="5.83977">
        <ele>896.47</ele>
        <time>2019-11-13T08:50:44Z</time>
      </trkpt>
      <trkpt lat="46.51263" lon="5.83988">
        <ele>895.36</ele>
        <time>2019-11-13T08:51:01Z</time>
      </trkpt>
      <trkpt lat="46.51275" lon="5.83996">
        <ele>895</ele>
        <time>2019-11-13T08:51:15Z</time>
      </trkpt>
      <trkpt lat="46.51295" lon="5.84011">
        <ele>894.04</ele>
        <time>2019-11-13T08:51:35Z</time>
      </trkpt>
      <trkpt lat="46.51306" lon="5.8404">
        <ele>892.8</ele>
        <time>2019-11-13T08:51:57Z</time>
      </trkpt>
      <trkpt lat="46.51304" lon="5.84062">
        <ele>891.84</ele>
        <time>2019-11-13T08:52:13Z</time>
      </trkpt>
      <trkpt lat="46.51301" lon="5.84076">
        <ele>891.46</ele>
        <time>2019-11-13T08:52:27Z</time>
      </trkpt>
      <trkpt lat="46.51301" lon="5.84079">
        <ele>891.38</ele>
        <time>2019-11-13T08:52:52Z</time>
      </trkpt>
      <trkpt lat="46.513" lon="5.84085">
        <ele>890.75</ele>
        <time>2019-11-13T08:52:56Z</time>
      </trkpt>
      <trkpt lat="46.51291" lon="5.84112">
        <ele>890.14</ele>
        <time>2019-11-13T08:53:13Z</time>
      </trkpt>
      <trkpt lat="46.51288" lon="5.84131">
        <ele>890.01</ele>
        <time>2019-11-13T08:53:27Z</time>
      </trkpt>
      <trkpt lat="46.51282" lon="5.84155">
        <ele>889.83</ele>
        <time>2019-11-13T08:53:43Z</time>
      </trkpt>
      <trkpt lat="46.51273" lon="5.84181">
        <ele>889.96</ele>
        <time>2019-11-13T08:54:01Z</time>
      </trkpt>
      <trkpt lat="46.51266" lon="5.84201">
        <ele>889.6</ele>
        <time>2019-11-13T08:54:15Z</time>
      </trkpt>
      <trkpt lat="46.51255" lon="5.84223">
        <ele>889.62</ele>
        <time>2019-11-13T08:54:31Z</time>
      </trkpt>
      <trkpt lat="46.51244" lon="5.8425">
        <ele>890.33</ele>
        <time>2019-11-13T08:54:50Z</time>
      </trkpt>
      <trkpt lat="46.5124" lon="5.84256">
        <ele>889.97</ele>
        <time>2019-11-13T08:54:55Z</time>
      </trkpt>
      <trkpt lat="46.51226" lon="5.84276">
        <ele>889.7</ele>
        <time>2019-11-13T08:55:14Z</time>
      </trkpt>
      <trkpt lat="46.51223" lon="5.84279">
        <ele>889.58</ele>
        <time>2019-11-13T08:55:18Z</time>
      </trkpt>
      <trkpt lat="46.51214" lon="5.84287">
        <ele>889.35</ele>
        <time>2019-11-13T08:55:30Z</time>
      </trkpt>
      <trkpt lat="46.512" lon="5.84304">
        <ele>888.35</ele>
        <time>2019-11-13T08:55:49Z</time>
      </trkpt>
      <trkpt lat="46.51191" lon="5.84321">
        <ele>887.85</ele>
        <time>2019-11-13T08:56:03Z</time>
      </trkpt>
      <trkpt lat="46.51182" lon="5.84348">
        <ele>888.3</ele>
        <time>2019-11-13T08:56:20Z</time>
      </trkpt>
      <trkpt lat="46.51182" lon="5.84357">
        <ele>888.36</ele>
        <time>2019-11-13T08:56:26Z</time>
      </trkpt>
      <trkpt lat="46.51184" lon="5.84385">
        <ele>889.45</ele>
        <time>2019-11-13T08:56:43Z</time>
      </trkpt>
      <trkpt lat="46.51186" lon="5.84408">
        <ele>888.6</ele>
        <time>2019-11-13T08:56:59Z</time>
      </trkpt>
      <trkpt lat="46.51181" lon="5.84422">
        <ele>886.81</ele>
        <time>2019-11-13T08:57:19Z</time>
      </trkpt>
      <trkpt lat="46.51179" lon="5.8443">
        <ele>886.51</ele>
        <time>2019-11-13T08:57:38Z</time>
      </trkpt>
      <trkpt lat="46.51179" lon="5.84431">
        <ele>886.99</ele>
        <time>2019-11-13T08:57:47Z</time>
      </trkpt>
      <trkpt lat="46.51174" lon="5.84441">
        <ele>885.49</ele>
        <time>2019-11-13T08:58:02Z</time>
      </trkpt>
      <trkpt lat="46.51173" lon="5.84445">
        <ele>885.25</ele>
        <time>2019-11-13T08:58:05Z</time>
      </trkpt>
      <trkpt lat="46.51168" lon="5.84461">
        <ele>883.55</ele>
        <time>2019-11-13T08:58:18Z</time>
      </trkpt>
      <trkpt lat="46.5116" lon="5.84487">
        <ele>881.67</ele>
        <time>2019-11-13T08:58:37Z</time>
      </trkpt>
      <trkpt lat="46.51155" lon="5.84503">
        <ele>878.67</ele>
        <time>2019-11-13T08:58:47Z</time>
      </trkpt>
      <trkpt lat="46.51143" lon="5.84532">
        <ele>875.66</ele>
        <time>2019-11-13T08:59:06Z</time>
      </trkpt>
      <trkpt lat="46.51133" lon="5.84558">
        <ele>874.25</ele>
        <time>2019-11-13T08:59:26Z</time>
      </trkpt>
      <trkpt lat="46.51118" lon="5.84583">
        <ele>872.36</ele>
        <time>2019-11-13T08:59:45Z</time>
      </trkpt>
      <trkpt lat="46.51116" lon="5.84588">
        <ele>872.69</ele>
        <time>2019-11-13T08:59:56Z</time>
      </trkpt>
      <trkpt lat="46.51116" lon="5.8459">
        <ele>872.64</ele>
        <time>2019-11-13T08:59:58Z</time>
      </trkpt>
      <trkpt lat="46.51106" lon="5.84619">
        <ele>871.34</ele>
        <time>2019-11-13T09:00:19Z</time>
      </trkpt>
      <trkpt lat="46.51098" lon="5.8464">
        <ele>871.32</ele>
        <time>2019-11-13T09:00:35Z</time>
      </trkpt>
      <trkpt lat="46.51098" lon="5.8464">
        <ele>871.05</ele>
        <time>2019-11-13T09:00:37Z</time>
      </trkpt>
      <trkpt lat="46.51099" lon="5.84648">
        <ele>871.01</ele>
        <time>2019-11-13T09:00:50Z</time>
      </trkpt>
      <trkpt lat="46.5111" lon="5.84669">
        <ele>870.79</ele>
        <time>2019-11-13T09:01:07Z</time>
      </trkpt>
      <trkpt lat="46.51125" lon="5.84684">
        <ele>870.67</ele>
        <time>2019-11-13T09:01:25Z</time>
      </trkpt>
      <trkpt lat="46.51144" lon="5.84699">
        <ele>870.44</ele>
        <time>2019-11-13T09:01:46Z</time>
      </trkpt>
      <trkpt lat="46.5115" lon="5.84703">
        <ele>870.96</ele>
        <time>2019-11-13T09:01:52Z</time>
      </trkpt>
      <trkpt lat="46.51173" lon="5.84709">
        <ele>870.61</ele>
        <time>2019-11-13T09:02:12Z</time>
      </trkpt>
      <trkpt lat="46.51194" lon="5.84708">
        <ele>871.04</ele>
        <time>2019-11-13T09:02:30Z</time>
      </trkpt>
      <trkpt lat="46.51214" lon="5.84709">
        <ele>871.68</ele>
        <time>2019-11-13T09:02:47Z</time>
      </trkpt>
      <trkpt lat="46.51221" lon="5.8471">
        <ele>871.55</ele>
        <time>2019-11-13T09:02:58Z</time>
      </trkpt>
      <trkpt lat="46.51226" lon="5.8471">
        <ele>871.33</ele>
        <time>2019-11-13T09:03:02Z</time>
      </trkpt>
      <trkpt lat="46.51231" lon="5.8471">
        <ele>870.24</ele>
        <time>2019-11-13T09:03:07Z</time>
      </trkpt>
      <trkpt lat="46.5124" lon="5.84711">
        <ele>871.87</ele>
        <time>2019-11-13T09:03:14Z</time>
      </trkpt>
      <trkpt lat="46.51266" lon="5.84714">
        <ele>872.62</ele>
        <time>2019-11-13T09:03:36Z</time>
      </trkpt>
      <trkpt lat="46.51271" lon="5.84716">
        <ele>872.94</ele>
        <time>2019-11-13T09:03:54Z</time>
      </trkpt>
      <trkpt lat="46.51279" lon="5.84722">
        <ele>873.12</ele>
        <time>2019-11-13T09:04:09Z</time>
      </trkpt>
      <trkpt lat="46.5128" lon="5.84723">
        <ele>872.76</ele>
        <time>2019-11-13T09:04:11Z</time>
      </trkpt>
      <trkpt lat="46.51295" lon="5.84726">
        <ele>874.11</ele>
        <time>2019-11-13T09:09:45Z</time>
      </trkpt>
      <trkpt lat="46.51333" lon="5.84743">
        <ele>874.98</ele>
        <time>2019-11-13T09:10:23Z</time>
      </trkpt>
      <trkpt lat="46.51355" lon="5.84751">
        <ele>874.59</ele>
        <time>2019-11-13T09:10:42Z</time>
      </trkpt>
      <trkpt lat="46.51368" lon="5.84758">
        <ele>874.47</ele>
        <time>2019-11-13T09:10:54Z</time>
      </trkpt>
      <trkpt lat="46.51389" lon="5.84768">
        <ele>874.13</ele>
        <time>2019-11-13T09:11:12Z</time>
      </trkpt>
      <trkpt lat="46.51401" lon="5.84776">
        <ele>875.19</ele>
        <time>2019-11-13T09:11:25Z</time>
      </trkpt>
      <trkpt lat="46.51409" lon="5.84781">
        <ele>876.05</ele>
        <time>2019-11-13T09:11:35Z</time>
      </trkpt>
      <trkpt lat="46.51424" lon="5.8479">
        <ele>877.17</ele>
        <time>2019-11-13T09:11:52Z</time>
      </trkpt>
      <trkpt lat="46.51434" lon="5.84793">
        <ele>878.11</ele>
        <time>2019-11-13T09:12:04Z</time>
      </trkpt>
      <trkpt lat="46.51453" lon="5.84804">
        <ele>878.36</ele>
        <time>2019-11-13T09:12:23Z</time>
      </trkpt>
      <trkpt lat="46.51467" lon="5.84813">
        <ele>878.75</ele>
        <time>2019-11-13T09:12:37Z</time>
      </trkpt>
      <trkpt lat="46.51483" lon="5.84821">
        <ele>878.34</ele>
        <time>2019-11-13T09:12:53Z</time>
      </trkpt>
      <trkpt lat="46.51501" lon="5.84833">
        <ele>878.2</ele>
        <time>2019-11-13T09:13:10Z</time>
      </trkpt>
      <trkpt lat="46.51521" lon="5.84848">
        <ele>878.18</ele>
        <time>2019-11-13T09:13:29Z</time>
      </trkpt>
      <trkpt lat="46.5154" lon="5.84862">
        <ele>878.38</ele>
        <time>2019-11-13T09:13:48Z</time>
      </trkpt>
      <trkpt lat="46.51559" lon="5.84874">
        <ele>878.5</ele>
        <time>2019-11-13T09:14:06Z</time>
      </trkpt>
      <trkpt lat="46.51577" lon="5.84887">
        <ele>878.68</ele>
        <time>2019-11-13T09:14:24Z</time>
      </trkpt>
      <trkpt lat="46.51602" lon="5.84902">
        <ele>877.44</ele>
        <time>2019-11-13T09:14:46Z</time>
      </trkpt>
      <trkpt lat="46.51623" lon="5.84915">
        <ele>876.29</ele>
        <time>2019-11-13T09:15:06Z</time>
      </trkpt>
      <trkpt lat="46.51643" lon="5.84923">
        <ele>876.73</ele>
        <time>2019-11-13T09:15:23Z</time>
      </trkpt>
      <trkpt lat="46.51644" lon="5.84924">
        <ele>876.27</ele>
        <time>2019-11-13T09:15:27Z</time>
      </trkpt>
      <trkpt lat="46.51661" lon="5.84939">
        <ele>876.46</ele>
        <time>2019-11-13T09:15:44Z</time>
      </trkpt>
      <trkpt lat="46.51675" lon="5.84951">
        <ele>876.19</ele>
        <time>2019-11-13T09:15:57Z</time>
      </trkpt>
      <trkpt lat="46.51692" lon="5.8497">
        <ele>876.87</ele>
        <time>2019-11-13T09:16:14Z</time>
      </trkpt>
      <trkpt lat="46.51701" lon="5.84981">
        <ele>876.79</ele>
        <time>2019-11-13T09:16:24Z</time>
      </trkpt>
      <trkpt lat="46.51705" lon="5.84985">
        <ele>876.44</ele>
        <time>2019-11-13T09:16:28Z</time>
      </trkpt>
      <trkpt lat="46.5172" lon="5.85003">
        <ele>876.31</ele>
        <time>2019-11-13T09:16:44Z</time>
      </trkpt>
      <trkpt lat="46.51738" lon="5.85024">
        <ele>875.63</ele>
        <time>2019-11-13T09:17:03Z</time>
      </trkpt>
      <trkpt lat="46.51757" lon="5.85043">
        <ele>875.59</ele>
        <time>2019-11-13T09:17:23Z</time>
      </trkpt>
      <trkpt lat="46.51774" lon="5.8506">
        <ele>875.31</ele>
        <time>2019-11-13T09:17:41Z</time>
      </trkpt>
      <trkpt lat="46.5179" lon="5.85075">
        <ele>876.06</ele>
        <time>2019-11-13T09:17:57Z</time>
      </trkpt>
      <trkpt lat="46.51807" lon="5.8509">
        <ele>876.37</ele>
        <time>2019-11-13T09:18:14Z</time>
      </trkpt>
      <trkpt lat="46.51809" lon="5.85091">
        <ele>876.2</ele>
        <time>2019-11-13T09:18:16Z</time>
      </trkpt>
      <trkpt lat="46.51828" lon="5.851">
        <ele>874.93</ele>
        <time>2019-11-13T09:18:33Z</time>
      </trkpt>
      <trkpt lat="46.51843" lon="5.85105">
        <ele>874.76</ele>
        <time>2019-11-13T09:18:49Z</time>
      </trkpt>
      <trkpt lat="46.51848" lon="5.8511">
        <ele>874.48</ele>
        <time>2019-11-13T09:18:57Z</time>
      </trkpt>
      <trkpt lat="46.51862" lon="5.85136">
        <ele>874.45</ele>
        <time>2019-11-13T09:19:15Z</time>
      </trkpt>
      <trkpt lat="46.51874" lon="5.85162">
        <ele>874.21</ele>
        <time>2019-11-13T09:19:33Z</time>
      </trkpt>
      <trkpt lat="46.51884" lon="5.85182">
        <ele>874.09</ele>
        <time>2019-11-13T09:19:48Z</time>
      </trkpt>
      <trkpt lat="46.51894" lon="5.85205">
        <ele>873.81</ele>
        <time>2019-11-13T09:20:04Z</time>
      </trkpt>
      <trkpt lat="46.51904" lon="5.85234">
        <ele>873.7</ele>
        <time>2019-11-13T09:20:23Z</time>
      </trkpt>
      <trkpt lat="46.51912" lon="5.85257">
        <ele>873.9</ele>
        <time>2019-11-13T09:20:38Z</time>
      </trkpt>
      <trkpt lat="46.51913" lon="5.85264">
        <ele>874</ele>
        <time>2019-11-13T09:20:42Z</time>
      </trkpt>
      <trkpt lat="46.51915" lon="5.85274">
        <ele>873.42</ele>
        <time>2019-11-13T09:20:48Z</time>
      </trkpt>
      <trkpt lat="46.51924" lon="5.85306">
        <ele>873.34</ele>
        <time>2019-11-13T09:21:07Z</time>
      </trkpt>
      <trkpt lat="46.51932" lon="5.85333">
        <ele>872.28</ele>
        <time>2019-11-13T09:21:25Z</time>
      </trkpt>
      <trkpt lat="46.51941" lon="5.85361">
        <ele>872.85</ele>
        <time>2019-11-13T09:21:43Z</time>
      </trkpt>
      <trkpt lat="46.51949" lon="5.85396">
        <ele>873.37</ele>
        <time>2019-11-13T09:22:03Z</time>
      </trkpt>
      <trkpt lat="46.51957" lon="5.85423">
        <ele>872.77</ele>
        <time>2019-11-13T09:22:21Z</time>
      </trkpt>
      <trkpt lat="46.51968" lon="5.85442">
        <ele>872.67</ele>
        <time>2019-11-13T09:22:38Z</time>
      </trkpt>
      <trkpt lat="46.51986" lon="5.8546">
        <ele>872.97</ele>
        <time>2019-11-13T09:22:55Z</time>
      </trkpt>
      <trkpt lat="46.5199" lon="5.85466">
        <ele>873.12</ele>
        <time>2019-11-13T09:23:00Z</time>
      </trkpt>
      <trkpt lat="46.52003" lon="5.8548">
        <ele>872.66</ele>
        <time>2019-11-13T09:23:13Z</time>
      </trkpt>
      <trkpt lat="46.5202" lon="5.855">
        <ele>872.27</ele>
        <time>2019-11-13T09:23:31Z</time>
      </trkpt>
      <trkpt lat="46.52025" lon="5.85507">
        <ele>872.31</ele>
        <time>2019-11-13T09:23:48Z</time>
      </trkpt>
      <trkpt lat="46.52028" lon="5.8551">
        <ele>871.89</ele>
        <time>2019-11-13T09:24:05Z</time>
      </trkpt>
      <trkpt lat="46.52029" lon="5.85512">
        <ele>871.83</ele>
        <time>2019-11-13T09:24:30Z</time>
      </trkpt>
      <trkpt lat="46.52028" lon="5.85526">
        <ele>871.59</ele>
        <time>2019-11-13T09:24:47Z</time>
      </trkpt>
      <trkpt lat="46.52024" lon="5.85537">
        <ele>871.71</ele>
        <time>2019-11-13T09:25:02Z</time>
      </trkpt>
      <trkpt lat="46.52022" lon="5.85549">
        <ele>872.07</ele>
        <time>2019-11-13T09:25:16Z</time>
      </trkpt>
      <trkpt lat="46.52019" lon="5.85561">
        <ele>871.21</ele>
        <time>2019-11-13T09:25:27Z</time>
      </trkpt>
      <trkpt lat="46.52017" lon="5.85577">
        <ele>871.75</ele>
        <time>2019-11-13T09:25:42Z</time>
      </trkpt>
      <trkpt lat="46.52016" lon="5.85586">
        <ele>871.47</ele>
        <time>2019-11-13T09:25:49Z</time>
      </trkpt>
      <trkpt lat="46.5202" lon="5.85611">
        <ele>873.11</ele>
        <time>2019-11-13T09:26:06Z</time>
      </trkpt>
      <trkpt lat="46.52027" lon="5.85626">
        <ele>874.37</ele>
        <time>2019-11-13T09:26:19Z</time>
      </trkpt>
      <trkpt lat="46.52038" lon="5.85639">
        <ele>874.27</ele>
        <time>2019-11-13T09:26:35Z</time>
      </trkpt>
      <trkpt lat="46.52038" lon="5.85637">
        <ele>874.2</ele>
        <time>2019-11-13T09:26:50Z</time>
      </trkpt>
      <trkpt lat="46.52039" lon="5.85636">
        <ele>874.36</ele>
        <time>2019-11-13T09:27:09Z</time>
      </trkpt>
      <trkpt lat="46.5204" lon="5.85637">
        <ele>873.65</ele>
        <time>2019-11-13T09:27:28Z</time>
      </trkpt>
      <trkpt lat="46.52042" lon="5.85639">
        <ele>873.49</ele>
        <time>2019-11-13T09:27:46Z</time>
      </trkpt>
      <trkpt lat="46.5204" lon="5.8565">
        <ele>872.97</ele>
        <time>2019-11-13T09:28:00Z</time>
      </trkpt>
      <trkpt lat="46.52038" lon="5.85653">
        <ele>872.33</ele>
        <time>2019-11-13T09:28:22Z</time>
      </trkpt>
      <trkpt lat="46.52037" lon="5.85653">
        <ele>873.32</ele>
        <time>2019-11-13T09:28:42Z</time>
      </trkpt>
      <trkpt lat="46.52037" lon="5.8565">
        <ele>873.68</ele>
        <time>2019-11-13T09:28:58Z</time>
      </trkpt>
      <trkpt lat="46.52037" lon="5.8565">
        <ele>872.89</ele>
        <time>2019-11-13T09:29:21Z</time>
      </trkpt>
      <trkpt lat="46.52038" lon="5.85653">
        <ele>872.5</ele>
        <time>2019-11-13T09:29:58Z</time>
      </trkpt>
      <trkpt lat="46.52037" lon="5.85653">
        <ele>872.63</ele>
        <time>2019-11-13T09:30:20Z</time>
      </trkpt>
      <trkpt lat="46.52039" lon="5.85651">
        <ele>873.46</ele>
        <time>2019-11-13T09:30:44Z</time>
      </trkpt>
      <trkpt lat="46.52039" lon="5.8565">
        <ele>873.48</ele>
        <time>2019-11-13T09:31:11Z</time>
      </trkpt>
      <trkpt lat="46.52039" lon="5.85652">
        <ele>873.06</ele>
        <time>2019-11-13T09:31:35Z</time>
      </trkpt>
      <trkpt lat="46.52039" lon="5.85651">
        <ele>872.79</ele>
        <time>2019-11-13T09:31:55Z</time>
      </trkpt>
      <trkpt lat="46.52042" lon="5.85652">
        <ele>873.28</ele>
        <time>2019-11-13T09:32:11Z</time>
      </trkpt>
      <trkpt lat="46.52052" lon="5.85658">
        <ele>873.47</ele>
        <time>2019-11-13T09:32:26Z</time>
      </trkpt>
      <trkpt lat="46.52055" lon="5.85661">
        <ele>873.23</ele>
        <time>2019-11-13T09:32:30Z</time>
      </trkpt>
      <trkpt lat="46.52064" lon="5.85665">
        <ele>872.31</ele>
        <time>2019-11-13T09:32:40Z</time>
      </trkpt>
      <trkpt lat="46.52068" lon="5.85668">
        <ele>872.76</ele>
        <time>2019-11-13T09:32:45Z</time>
      </trkpt>
      <trkpt lat="46.52077" lon="5.85674">
        <ele>873.01</ele>
        <time>2019-11-13T09:32:55Z</time>
      </trkpt>
      <trkpt lat="46.52083" lon="5.85679">
        <ele>872.75</ele>
        <time>2019-11-13T09:33:01Z</time>
      </trkpt>
      <trkpt lat="46.52102" lon="5.85692">
        <ele>871.45</ele>
        <time>2019-11-13T09:33:19Z</time>
      </trkpt>
      <trkpt lat="46.52118" lon="5.85702">
        <ele>871.19</ele>
        <time>2019-11-13T09:33:34Z</time>
      </trkpt>
      <trkpt lat="46.52134" lon="5.85717">
        <ele>870.84</ele>
        <time>2019-11-13T09:33:50Z</time>
      </trkpt>
      <trkpt lat="46.52138" lon="5.85722">
        <ele>871.13</ele>
        <time>2019-11-13T09:33:55Z</time>
      </trkpt>
      <trkpt lat="46.52152" lon="5.85735">
        <ele>870.44</ele>
        <time>2019-11-13T09:34:09Z</time>
      </trkpt>
      <trkpt lat="46.52164" lon="5.85741">
        <ele>870.55</ele>
        <time>2019-11-13T09:34:20Z</time>
      </trkpt>
      <trkpt lat="46.52175" lon="5.85748">
        <ele>870.73</ele>
        <time>2019-11-13T09:34:31Z</time>
      </trkpt>
      <trkpt lat="46.52189" lon="5.85762">
        <ele>871.04</ele>
        <time>2019-11-13T09:34:46Z</time>
      </trkpt>
      <trkpt lat="46.52191" lon="5.85764">
        <ele>870.93</ele>
        <time>2019-11-13T09:34:49Z</time>
      </trkpt>
      <trkpt lat="46.52199" lon="5.85767">
        <ele>871.1</ele>
        <time>2019-11-13T09:35:05Z</time>
      </trkpt>
      <trkpt lat="46.52205" lon="5.85772">
        <ele>870.93</ele>
        <time>2019-11-13T09:35:22Z</time>
      </trkpt>
      <trkpt lat="46.52212" lon="5.85786">
        <ele>871.31</ele>
        <time>2019-11-13T09:35:42Z</time>
      </trkpt>
      <trkpt lat="46.52215" lon="5.85794">
        <ele>870.85</ele>
        <time>2019-11-13T09:35:57Z</time>
      </trkpt>
      <trkpt lat="46.52219" lon="5.85816">
        <ele>871.23</ele>
        <time>2019-11-13T09:36:18Z</time>
      </trkpt>
      <trkpt lat="46.52222" lon="5.8583">
        <ele>871.24</ele>
        <time>2019-11-13T09:36:30Z</time>
      </trkpt>
      <trkpt lat="46.52224" lon="5.85834">
        <ele>871.28</ele>
        <time>2019-11-13T09:36:33Z</time>
      </trkpt>
      <trkpt lat="46.52242" lon="5.85856">
        <ele>870.96</ele>
        <time>2019-11-13T09:36:54Z</time>
      </trkpt>
      <trkpt lat="46.52258" lon="5.85864">
        <ele>870.79</ele>
        <time>2019-11-13T09:37:11Z</time>
      </trkpt>
      <trkpt lat="46.5227" lon="5.85867">
        <ele>871.52</ele>
        <time>2019-11-13T09:37:25Z</time>
      </trkpt>
      <trkpt lat="46.52288" lon="5.85869">
        <ele>870.97</ele>
        <time>2019-11-13T09:37:42Z</time>
      </trkpt>
      <trkpt lat="46.52302" lon="5.85869">
        <ele>873.09</ele>
        <time>2019-11-13T09:37:56Z</time>
      </trkpt>
      <trkpt lat="46.52313" lon="5.85875">
        <ele>874.22</ele>
        <time>2019-11-13T09:38:11Z</time>
      </trkpt>
      <trkpt lat="46.52321" lon="5.85881">
        <ele>874.92</ele>
        <time>2019-11-13T09:38:24Z</time>
      </trkpt>
      <trkpt lat="46.52326" lon="5.85882">
        <ele>875.51</ele>
        <time>2019-11-13T09:38:42Z</time>
      </trkpt>
      <trkpt lat="46.5233" lon="5.85884">
        <ele>875.48</ele>
        <time>2019-11-13T09:39:00Z</time>
      </trkpt>
      <trkpt lat="46.52327" lon="5.85881">
        <ele>875.5</ele>
        <time>2019-11-13T09:39:17Z</time>
      </trkpt>
      <trkpt lat="46.52328" lon="5.85882">
        <ele>875.56</ele>
        <time>2019-11-13T09:39:21Z</time>
      </trkpt>
      <trkpt lat="46.52342" lon="5.85893">
        <ele>875.14</ele>
        <time>2019-11-13T09:39:37Z</time>
      </trkpt>
      <trkpt lat="46.52355" lon="5.85902">
        <ele>875.96</ele>
        <time>2019-11-13T09:39:54Z</time>
      </trkpt>
      <trkpt lat="46.52359" lon="5.85905">
        <ele>875.78</ele>
        <time>2019-11-13T09:39:58Z</time>
      </trkpt>
      <trkpt lat="46.52377" lon="5.85917">
        <ele>876.02</ele>
        <time>2019-11-13T09:40:14Z</time>
      </trkpt>
      <trkpt lat="46.5239" lon="5.85933">
        <ele>875.57</ele>
        <time>2019-11-13T09:40:30Z</time>
      </trkpt>
      <trkpt lat="46.52393" lon="5.85936">
        <ele>875.58</ele>
        <time>2019-11-13T09:40:33Z</time>
      </trkpt>
      <trkpt lat="46.524" lon="5.85946">
        <ele>874.84</ele>
        <time>2019-11-13T09:40:49Z</time>
      </trkpt>
      <trkpt lat="46.524" lon="5.85949">
        <ele>874.79</ele>
        <time>2019-11-13T09:41:03Z</time>
      </trkpt>
      <trkpt lat="46.52387" lon="5.85962">
        <ele>874.47</ele>
        <time>2019-11-13T09:41:18Z</time>
      </trkpt>
      <trkpt lat="46.52382" lon="5.85976">
        <ele>873.19</ele>
        <time>2019-11-13T09:41:32Z</time>
      </trkpt>
      <trkpt lat="46.52375" lon="5.85985">
        <ele>873.39</ele>
        <time>2019-11-13T09:41:44Z</time>
      </trkpt>
      <trkpt lat="46.52364" lon="5.85998">
        <ele>872.96</ele>
        <time>2019-11-13T09:41:59Z</time>
      </trkpt>
      <trkpt lat="46.52349" lon="5.86018">
        <ele>873.6</ele>
        <time>2019-11-13T09:42:16Z</time>
      </trkpt>
      <trkpt lat="46.52348" lon="5.86019">
        <ele>873.4</ele>
        <time>2019-11-13T09:42:17Z</time>
      </trkpt>
      <trkpt lat="46.52344" lon="5.86024">
        <ele>873</ele>
        <time>2019-11-13T09:42:21Z</time>
      </trkpt>
      <trkpt lat="46.52338" lon="5.86032">
        <ele>873.58</ele>
        <time>2019-11-13T09:42:29Z</time>
      </trkpt>
      <trkpt lat="46.52319" lon="5.8605">
        <ele>873.73</ele>
        <time>2019-11-13T09:42:47Z</time>
      </trkpt>
      <trkpt lat="46.52305" lon="5.86066">
        <ele>873.32</ele>
        <time>2019-11-13T09:43:04Z</time>
      </trkpt>
      <trkpt lat="46.52301" lon="5.86079">
        <ele>875.5</ele>
        <time>2019-11-13T09:43:18Z</time>
      </trkpt>
      <trkpt lat="46.52292" lon="5.86088">
        <ele>878.57</ele>
        <time>2019-11-13T09:43:34Z</time>
      </trkpt>
      <trkpt lat="46.52281" lon="5.86094">
        <ele>880.35</ele>
        <time>2019-11-13T09:43:53Z</time>
      </trkpt>
      <trkpt lat="46.52277" lon="5.86097">
        <ele>881.75</ele>
        <time>2019-11-13T09:44:01Z</time>
      </trkpt>
      <trkpt lat="46.52271" lon="5.86113">
        <ele>885.16</ele>
        <time>2019-11-13T09:44:22Z</time>
      </trkpt>
      <trkpt lat="46.52267" lon="5.8613">
        <ele>888.02</ele>
        <time>2019-11-13T09:44:39Z</time>
      </trkpt>
      <trkpt lat="46.52261" lon="5.86139">
        <ele>888</ele>
        <time>2019-11-13T09:44:51Z</time>
      </trkpt>
      <trkpt lat="46.52253" lon="5.8615">
        <ele>889.81</ele>
        <time>2019-11-13T09:45:11Z</time>
      </trkpt>
      <trkpt lat="46.52245" lon="5.86162">
        <ele>893.24</ele>
        <time>2019-11-13T09:45:27Z</time>
      </trkpt>
      <trkpt lat="46.52233" lon="5.86175">
        <ele>896.37</ele>
        <time>2019-11-13T09:45:46Z</time>
      </trkpt>
      <trkpt lat="46.52225" lon="5.86184">
        <ele>898.86</ele>
        <time>2019-11-13T09:45:57Z</time>
      </trkpt>
      <trkpt lat="46.52216" lon="5.86193">
        <ele>902.15</ele>
        <time>2019-11-13T09:46:14Z</time>
      </trkpt>
      <trkpt lat="46.52216" lon="5.86194">
        <ele>902.32</ele>
        <time>2019-11-13T09:46:15Z</time>
      </trkpt>
      <trkpt lat="46.52216" lon="5.862">
        <ele>903.8</ele>
        <time>2019-11-13T09:46:20Z</time>
      </trkpt>
      <trkpt lat="46.52209" lon="5.86213">
        <ele>905.52</ele>
        <time>2019-11-13T09:46:40Z</time>
      </trkpt>
      <trkpt lat="46.52207" lon="5.86212">
        <ele>904.94</ele>
        <time>2019-11-13T09:46:43Z</time>
      </trkpt>
      <trkpt lat="46.52206" lon="5.86211">
        <ele>904.64</ele>
        <time>2019-11-13T09:46:45Z</time>
      </trkpt>
      <trkpt lat="46.52195" lon="5.86225">
        <ele>904.79</ele>
        <time>2019-11-13T09:47:10Z</time>
      </trkpt>
      <trkpt lat="46.52182" lon="5.86214">
        <ele>907.83</ele>
        <time>2019-11-13T09:47:25Z</time>
      </trkpt>
      <trkpt lat="46.52174" lon="5.86193">
        <ele>910.56</ele>
        <time>2019-11-13T09:47:42Z</time>
      </trkpt>
      <trkpt lat="46.52173" lon="5.86182">
        <ele>911.29</ele>
        <time>2019-11-13T09:48:00Z</time>
      </trkpt>
      <trkpt lat="46.52167" lon="5.86181">
        <ele>911.57</ele>
        <time>2019-11-13T09:48:19Z</time>
      </trkpt>
      <trkpt lat="46.52169" lon="5.86183">
        <ele>913.42</ele>
        <time>2019-11-13T09:48:46Z</time>
      </trkpt>
      <trkpt lat="46.52169" lon="5.86182">
        <ele>913.23</ele>
        <time>2019-11-13T09:49:33Z</time>
      </trkpt>
      <trkpt lat="46.52169" lon="5.86183">
        <ele>913.33</ele>
        <time>2019-11-13T09:50:10Z</time>
      </trkpt>
      <trkpt lat="46.5217" lon="5.86181">
        <ele>912.95</ele>
        <time>2019-11-13T09:50:51Z</time>
      </trkpt>
      <trkpt lat="46.52169" lon="5.86181">
        <ele>912.99</ele>
        <time>2019-11-13T09:51:14Z</time>
      </trkpt>
      <trkpt lat="46.52169" lon="5.8618">
        <ele>913.1</ele>
        <time>2019-11-13T09:51:38Z</time>
      </trkpt>
      <trkpt lat="46.52171" lon="5.86181">
        <ele>912.64</ele>
        <time>2019-11-13T09:52:04Z</time>
      </trkpt>
      <trkpt lat="46.52172" lon="5.86181">
        <ele>912.78</ele>
        <time>2019-11-13T09:52:28Z</time>
      </trkpt>
      <trkpt lat="46.52172" lon="5.86182">
        <ele>912.59</ele>
        <time>2019-11-13T09:52:47Z</time>
      </trkpt>
      <trkpt lat="46.52174" lon="5.86183">
        <ele>911.52</ele>
        <time>2019-11-13T09:53:04Z</time>
      </trkpt>
      <trkpt lat="46.52173" lon="5.86184">
        <ele>916.22</ele>
        <time>2019-11-13T09:53:06Z</time>
      </trkpt>
      <trkpt lat="46.52173" lon="5.86183">
        <ele>912.82</ele>
        <time>2019-11-13T09:53:08Z</time>
      </trkpt>
      <trkpt lat="46.52173" lon="5.86185">
        <ele>912.92</ele>
        <time>2019-11-13T09:53:26Z</time>
      </trkpt>
      <trkpt lat="46.52172" lon="5.86184">
        <ele>913.23</ele>
        <time>2019-11-13T09:53:43Z</time>
      </trkpt>
      <trkpt lat="46.52173" lon="5.86185">
        <ele>913.7</ele>
        <time>2019-11-13T09:53:59Z</time>
      </trkpt>
      <trkpt lat="46.52173" lon="5.86187">
        <ele>913.07</ele>
        <time>2019-11-13T09:54:16Z</time>
      </trkpt>
      <trkpt lat="46.52172" lon="5.86184">
        <ele>913.03</ele>
        <time>2019-11-13T09:54:32Z</time>
      </trkpt>
      <trkpt lat="46.52174" lon="5.86197">
        <ele>911.25</ele>
        <time>2019-11-13T09:54:51Z</time>
      </trkpt>
      <trkpt lat="46.52179" lon="5.86208">
        <ele>908.71</ele>
        <time>2019-11-13T09:55:05Z</time>
      </trkpt>
      <trkpt lat="46.52186" lon="5.86218">
        <ele>906.57</ele>
        <time>2019-11-13T09:55:15Z</time>
      </trkpt>
      <trkpt lat="46.52193" lon="5.86229">
        <ele>906.76</ele>
        <time>2019-11-13T09:55:37Z</time>
      </trkpt>
      <trkpt lat="46.52192" lon="5.8623">
        <ele>906.2</ele>
        <time>2019-11-13T09:56:06Z</time>
      </trkpt>
      <trkpt lat="46.52196" lon="5.86226">
        <ele>906.9</ele>
        <time>2019-11-13T09:56:27Z</time>
      </trkpt>
      <trkpt lat="46.52198" lon="5.86222">
        <ele>906.65</ele>
        <time>2019-11-13T09:56:47Z</time>
      </trkpt>
      <trkpt lat="46.52194" lon="5.86218">
        <ele>905.94</ele>
        <time>2019-11-13T09:57:12Z</time>
      </trkpt>
      <trkpt lat="46.52194" lon="5.86222">
        <ele>906.29</ele>
        <time>2019-11-13T09:57:36Z</time>
      </trkpt>
      <trkpt lat="46.52198" lon="5.86225">
        <ele>905.94</ele>
        <time>2019-11-13T09:58:04Z</time>
      </trkpt>
      <trkpt lat="46.52196" lon="5.86219">
        <ele>905.87</ele>
        <time>2019-11-13T09:58:29Z</time>
      </trkpt>
      <trkpt lat="46.52191" lon="5.86217">
        <ele>906.62</ele>
        <time>2019-11-13T09:59:10Z</time>
      </trkpt>
      <trkpt lat="46.52191" lon="5.86217">
        <ele>906.01</ele>
        <time>2019-11-13T09:59:38Z</time>
      </trkpt>
      <trkpt lat="46.52194" lon="5.8621">
        <ele>903.76</ele>
        <time>2019-11-13T09:59:54Z</time>
      </trkpt>
      <trkpt lat="46.52195" lon="5.86202">
        <ele>900.72</ele>
        <time>2019-11-13T10:00:09Z</time>
      </trkpt>
      <trkpt lat="46.52198" lon="5.86193">
        <ele>897.66</ele>
        <time>2019-11-13T10:00:23Z</time>
      </trkpt>
      <trkpt lat="46.52209" lon="5.86184">
        <ele>894.53</ele>
        <time>2019-11-13T10:00:38Z</time>
      </trkpt>
      <trkpt lat="46.52223" lon="5.86171">
        <ele>891.67</ele>
        <time>2019-11-13T10:00:55Z</time>
      </trkpt>
      <trkpt lat="46.52238" lon="5.86149">
        <ele>889.52</ele>
        <time>2019-11-13T10:01:15Z</time>
      </trkpt>
      <trkpt lat="46.52248" lon="5.86137">
        <ele>889.4</ele>
        <time>2019-11-13T10:01:34Z</time>
      </trkpt>
      <trkpt lat="46.52256" lon="5.86125">
        <ele>885.64</ele>
        <time>2019-11-13T10:01:46Z</time>
      </trkpt>
      <trkpt lat="46.52264" lon="5.86104">
        <ele>884.13</ele>
        <time>2019-11-13T10:02:06Z</time>
      </trkpt>
      <trkpt lat="46.52272" lon="5.86089">
        <ele>880.88</ele>
        <time>2019-11-13T10:02:22Z</time>
      </trkpt>
      <trkpt lat="46.5228" lon="5.86082">
        <ele>878.52</ele>
        <time>2019-11-13T10:02:40Z</time>
      </trkpt>
      <trkpt lat="46.52295" lon="5.86077">
        <ele>875.44</ele>
        <time>2019-11-13T10:02:54Z</time>
      </trkpt>
      <trkpt lat="46.52298" lon="5.86068">
        <ele>875.02</ele>
        <time>2019-11-13T10:03:00Z</time>
      </trkpt>
      <trkpt lat="46.52296" lon="5.86061">
        <ele>875.7</ele>
        <time>2019-11-13T10:03:05Z</time>
      </trkpt>
      <trkpt lat="46.52289" lon="5.86051">
        <ele>874.56</ele>
        <time>2019-11-13T10:03:23Z</time>
      </trkpt>
      <trkpt lat="46.52297" lon="5.86054">
        <ele>875.38</ele>
        <time>2019-11-13T10:03:38Z</time>
      </trkpt>
      <trkpt lat="46.52303" lon="5.86053">
        <ele>875.65</ele>
        <time>2019-11-13T10:03:57Z</time>
      </trkpt>
      <trkpt lat="46.52304" lon="5.86055">
        <ele>876.04</ele>
        <time>2019-11-13T10:04:21Z</time>
      </trkpt>
      <trkpt lat="46.52302" lon="5.86056">
        <ele>875.75</ele>
        <time>2019-11-13T10:04:25Z</time>
      </trkpt>
      <trkpt lat="46.52316" lon="5.86042">
        <ele>875.58</ele>
        <time>2019-11-13T10:04:42Z</time>
      </trkpt>
      <trkpt lat="46.52328" lon="5.86029">
        <ele>875.83</ele>
        <time>2019-11-13T10:04:57Z</time>
      </trkpt>
      <trkpt lat="46.52337" lon="5.86018">
        <ele>875.82</ele>
        <time>2019-11-13T10:05:09Z</time>
      </trkpt>
      <trkpt lat="46.52344" lon="5.8601">
        <ele>875.23</ele>
        <time>2019-11-13T10:05:18Z</time>
      </trkpt>
      <trkpt lat="46.52346" lon="5.86007">
        <ele>875.51</ele>
        <time>2019-11-13T10:05:21Z</time>
      </trkpt>
      <trkpt lat="46.52362" lon="5.85987">
        <ele>875.56</ele>
        <time>2019-11-13T10:05:39Z</time>
      </trkpt>
      <trkpt lat="46.52375" lon="5.85975">
        <ele>876.05</ele>
        <time>2019-11-13T10:05:52Z</time>
      </trkpt>
      <trkpt lat="46.52391" lon="5.85958">
        <ele>877.2</ele>
        <time>2019-11-13T10:06:10Z</time>
      </trkpt>
      <trkpt lat="46.52398" lon="5.85949">
        <ele>876.83</ele>
        <time>2019-11-13T10:06:18Z</time>
      </trkpt>
      <trkpt lat="46.52396" lon="5.85939">
        <ele>877.36</ele>
        <time>2019-11-13T10:06:28Z</time>
      </trkpt>
      <trkpt lat="46.52392" lon="5.85933">
        <ele>877.08</ele>
        <time>2019-11-13T10:06:34Z</time>
      </trkpt>
      <trkpt lat="46.5239" lon="5.8593">
        <ele>877.59</ele>
        <time>2019-11-13T10:06:37Z</time>
      </trkpt>
      <trkpt lat="46.52372" lon="5.8591">
        <ele>878.2</ele>
        <time>2019-11-13T10:06:57Z</time>
      </trkpt>
      <trkpt lat="46.52356" lon="5.85899">
        <ele>877.98</ele>
        <time>2019-11-13T10:07:13Z</time>
      </trkpt>
      <trkpt lat="46.52343" lon="5.85887">
        <ele>877.76</ele>
        <time>2019-11-13T10:07:28Z</time>
      </trkpt>
      <trkpt lat="46.52333" lon="5.85881">
        <ele>878.01</ele>
        <time>2019-11-13T10:07:45Z</time>
      </trkpt>
      <trkpt lat="46.52328" lon="5.85879">
        <ele>877.6</ele>
        <time>2019-11-13T10:07:58Z</time>
      </trkpt>
      <trkpt lat="46.52327" lon="5.85878">
        <ele>878.05</ele>
        <time>2019-11-13T10:08:12Z</time>
      </trkpt>
      <trkpt lat="46.52314" lon="5.85871">
        <ele>876.22</ele>
        <time>2019-11-13T10:08:29Z</time>
      </trkpt>
      <trkpt lat="46.523" lon="5.85864">
        <ele>874.35</ele>
        <time>2019-11-13T10:08:45Z</time>
      </trkpt>
      <trkpt lat="46.52281" lon="5.85862">
        <ele>874.34</ele>
        <time>2019-11-13T10:09:05Z</time>
      </trkpt>
      <trkpt lat="46.52273" lon="5.85861">
        <ele>874.14</ele>
        <time>2019-11-13T10:09:18Z</time>
      </trkpt>
      <trkpt lat="46.52247" lon="5.85852">
        <ele>873.78</ele>
        <time>2019-11-13T10:09:42Z</time>
      </trkpt>
      <trkpt lat="46.52228" lon="5.85836">
        <ele>874.09</ele>
        <time>2019-11-13T10:10:02Z</time>
      </trkpt>
      <trkpt lat="46.52223" lon="5.85826">
        <ele>874.47</ele>
        <time>2019-11-13T10:10:14Z</time>
      </trkpt>
      <trkpt lat="46.5222" lon="5.85813">
        <ele>874.59</ele>
        <time>2019-11-13T10:10:24Z</time>
      </trkpt>
      <trkpt lat="46.5222" lon="5.85808">
        <ele>874.45</ele>
        <time>2019-11-13T10:10:28Z</time>
      </trkpt>
      <trkpt lat="46.52216" lon="5.85789">
        <ele>873.87</ele>
        <time>2019-11-13T10:10:43Z</time>
      </trkpt>
      <trkpt lat="46.52209" lon="5.85771">
        <ele>873.59</ele>
        <time>2019-11-13T10:10:59Z</time>
      </trkpt>
      <trkpt lat="46.52207" lon="5.85769">
        <ele>873.49</ele>
        <time>2019-11-13T10:11:03Z</time>
      </trkpt>
      <trkpt lat="46.52204" lon="5.85769">
        <ele>873.83</ele>
        <time>2019-11-13T10:11:06Z</time>
      </trkpt>
      <trkpt lat="46.52194" lon="5.85762">
        <ele>873.84</ele>
        <time>2019-11-13T10:11:20Z</time>
      </trkpt>
      <trkpt lat="46.52192" lon="5.85761">
        <ele>873.45</ele>
        <time>2019-11-13T10:11:24Z</time>
      </trkpt>
      <trkpt lat="46.52186" lon="5.85757">
        <ele>874.12</ele>
        <time>2019-11-13T10:11:30Z</time>
      </trkpt>
      <trkpt lat="46.52178" lon="5.85748">
        <ele>873.73</ele>
        <time>2019-11-13T10:11:39Z</time>
      </trkpt>
      <trkpt lat="46.52161" lon="5.85734">
        <ele>873.45</ele>
        <time>2019-11-13T10:11:56Z</time>
      </trkpt>
      <trkpt lat="46.52144" lon="5.85721">
        <ele>873.33</ele>
        <time>2019-11-13T10:12:14Z</time>
      </trkpt>
      <trkpt lat="46.5214" lon="5.85718">
        <ele>874.22</ele>
        <time>2019-11-13T10:12:18Z</time>
      </trkpt>
      <trkpt lat="46.52139" lon="5.85714">
        <ele>873.27</ele>
        <time>2019-11-13T10:12:21Z</time>
      </trkpt>
      <trkpt lat="46.52123" lon="5.857">
        <ele>874.4</ele>
        <time>2019-11-13T10:12:39Z</time>
      </trkpt>
      <trkpt lat="46.52106" lon="5.85689">
        <ele>875.28</ele>
        <time>2019-11-13T10:12:56Z</time>
      </trkpt>
      <trkpt lat="46.521" lon="5.85687">
        <ele>874.96</ele>
        <time>2019-11-13T10:13:01Z</time>
      </trkpt>
      <trkpt lat="46.52084" lon="5.85674">
        <ele>875.58</ele>
        <time>2019-11-13T10:13:17Z</time>
      </trkpt>
      <trkpt lat="46.52068" lon="5.85664">
        <ele>876.69</ele>
        <time>2019-11-13T10:13:33Z</time>
      </trkpt>
      <trkpt lat="46.52055" lon="5.85655">
        <ele>877.09</ele>
        <time>2019-11-13T10:13:51Z</time>
      </trkpt>
      <trkpt lat="46.52039" lon="5.85647">
        <ele>876.71</ele>
        <time>2019-11-13T10:14:08Z</time>
      </trkpt>
      <trkpt lat="46.52039" lon="5.85655">
        <ele>876.28</ele>
        <time>2019-11-13T10:14:22Z</time>
      </trkpt>
      <trkpt lat="46.52035" lon="5.85664">
        <ele>875.24</ele>
        <time>2019-11-13T10:14:32Z</time>
      </trkpt>
      <trkpt lat="46.52033" lon="5.85683">
        <ele>876.38</ele>
        <time>2019-11-13T10:14:53Z</time>
      </trkpt>
      <trkpt lat="46.52019" lon="5.85701">
        <ele>875.81</ele>
        <time>2019-11-13T10:15:11Z</time>
      </trkpt>
      <trkpt lat="46.52015" lon="5.85699">
        <ele>875.44</ele>
        <time>2019-11-13T10:15:15Z</time>
      </trkpt>
      <trkpt lat="46.52007" lon="5.85705">
        <ele>875.8</ele>
        <time>2019-11-13T10:15:44Z</time>
      </trkpt>
      <trkpt lat="46.52002" lon="5.85704">
        <ele>875.27</ele>
        <time>2019-11-13T10:15:51Z</time>
      </trkpt>
      <trkpt lat="46.51996" lon="5.85704">
        <ele>875.05</ele>
        <time>2019-11-13T10:15:57Z</time>
      </trkpt>
      <trkpt lat="46.51979" lon="5.85698">
        <ele>875.08</ele>
        <time>2019-11-13T10:16:10Z</time>
      </trkpt>
      <trkpt lat="46.51962" lon="5.85685">
        <ele>876.22</ele>
        <time>2019-11-13T10:16:26Z</time>
      </trkpt>
      <trkpt lat="46.51947" lon="5.85684">
        <ele>875.68</ele>
        <time>2019-11-13T10:16:43Z</time>
      </trkpt>
      <trkpt lat="46.51943" lon="5.85688">
        <ele>875.96</ele>
        <time>2019-11-13T10:17:00Z</time>
      </trkpt>
      <trkpt lat="46.5194" lon="5.85685">
        <ele>876.05</ele>
        <time>2019-11-13T10:17:25Z</time>
      </trkpt>
      <trkpt lat="46.51943" lon="5.85686">
        <ele>876.06</ele>
        <time>2019-11-13T10:17:41Z</time>
      </trkpt>
      <trkpt lat="46.51939" lon="5.85687">
        <ele>875.8</ele>
        <time>2019-11-13T10:18:03Z</time>
      </trkpt>
      <trkpt lat="46.5193" lon="5.85689">
        <ele>875.82</ele>
        <time>2019-11-13T10:18:19Z</time>
      </trkpt>
      <trkpt lat="46.51924" lon="5.85688">
        <ele>876.39</ele>
        <time>2019-11-13T10:18:40Z</time>
      </trkpt>
      <trkpt lat="46.5191" lon="5.85672">
        <ele>876.32</ele>
        <time>2019-11-13T10:19:01Z</time>
      </trkpt>
      <trkpt lat="46.51908" lon="5.85669">
        <ele>875.96</ele>
        <time>2019-11-13T10:19:04Z</time>
      </trkpt>
      <trkpt lat="46.51896" lon="5.85654">
        <ele>876.86</ele>
        <time>2019-11-13T10:19:21Z</time>
      </trkpt>
      <trkpt lat="46.51893" lon="5.85651">
        <ele>876.38</ele>
        <time>2019-11-13T10:19:47Z</time>
      </trkpt>
      <trkpt lat="46.51892" lon="5.85651">
        <ele>876.1</ele>
        <time>2019-11-13T10:20:15Z</time>
      </trkpt>
      <trkpt lat="46.51887" lon="5.8565">
        <ele>875.9</ele>
        <time>2019-11-13T10:20:46Z</time>
      </trkpt>
      <trkpt lat="46.51878" lon="5.85643">
        <ele>876.21</ele>
        <time>2019-11-13T10:21:04Z</time>
      </trkpt>
      <trkpt lat="46.51868" lon="5.85627">
        <ele>876.1</ele>
        <time>2019-11-13T10:21:20Z</time>
      </trkpt>
      <trkpt lat="46.51867" lon="5.85622">
        <ele>876.08</ele>
        <time>2019-11-13T10:21:23Z</time>
      </trkpt>
      <trkpt lat="46.51865" lon="5.85616">
        <ele>876.27</ele>
        <time>2019-11-13T10:21:27Z</time>
      </trkpt>
      <trkpt lat="46.51864" lon="5.85611">
        <ele>876.43</ele>
        <time>2019-11-13T10:21:30Z</time>
      </trkpt>
      <trkpt lat="46.51863" lon="5.85607">
        <ele>876.09</ele>
        <time>2019-11-13T10:21:32Z</time>
      </trkpt>
      <trkpt lat="46.51861" lon="5.85604">
        <ele>876.13</ele>
        <time>2019-11-13T10:21:34Z</time>
      </trkpt>
      <trkpt lat="46.51847" lon="5.85594">
        <ele>877.18</ele>
        <time>2019-11-13T10:21:47Z</time>
      </trkpt>
      <trkpt lat="46.51828" lon="5.85578">
        <ele>876.15</ele>
        <time>2019-11-13T10:22:06Z</time>
      </trkpt>
      <trkpt lat="46.51821" lon="5.8556">
        <ele>876.3</ele>
        <time>2019-11-13T10:22:19Z</time>
      </trkpt>
      <trkpt lat="46.51819" lon="5.85552">
        <ele>876.43</ele>
        <time>2019-11-13T10:22:24Z</time>
      </trkpt>
      <trkpt lat="46.51805" lon="5.85529">
        <ele>875.74</ele>
        <time>2019-11-13T10:22:43Z</time>
      </trkpt>
      <trkpt lat="46.51802" lon="5.85522">
        <ele>875.39</ele>
        <time>2019-11-13T10:22:48Z</time>
      </trkpt>
      <trkpt lat="46.51802" lon="5.85516">
        <ele>875.8</ele>
        <time>2019-11-13T10:22:52Z</time>
      </trkpt>
      <trkpt lat="46.51806" lon="5.85496">
        <ele>878.51</ele>
        <time>2019-11-13T10:23:09Z</time>
      </trkpt>
      <trkpt lat="46.51807" lon="5.8549">
        <ele>879.99</ele>
        <time>2019-11-13T10:23:25Z</time>
      </trkpt>
      <trkpt lat="46.51805" lon="5.85485">
        <ele>879.67</ele>
        <time>2019-11-13T10:23:32Z</time>
      </trkpt>
      <trkpt lat="46.51803" lon="5.85481">
        <ele>879.57</ele>
        <time>2019-11-13T10:23:46Z</time>
      </trkpt>
      <trkpt lat="46.51798" lon="5.85478">
        <ele>880.03</ele>
        <time>2019-11-13T10:24:01Z</time>
      </trkpt>
      <trkpt lat="46.51798" lon="5.85476">
        <ele>880.01</ele>
        <time>2019-11-13T10:24:15Z</time>
      </trkpt>
      <trkpt lat="46.51789" lon="5.85467">
        <ele>880.97</ele>
        <time>2019-11-13T10:24:41Z</time>
      </trkpt>
      <trkpt lat="46.51786" lon="5.85463">
        <ele>880.63</ele>
        <time>2019-11-13T10:24:45Z</time>
      </trkpt>
      <trkpt lat="46.51782" lon="5.85459">
        <ele>881.37</ele>
        <time>2019-11-13T10:24:50Z</time>
      </trkpt>
      <trkpt lat="46.51766" lon="5.85441">
        <ele>882.03</ele>
        <time>2019-11-13T10:25:09Z</time>
      </trkpt>
      <trkpt lat="46.5175" lon="5.85422">
        <ele>882.48</ele>
        <time>2019-11-13T10:25:28Z</time>
      </trkpt>
      <trkpt lat="46.51737" lon="5.85409">
        <ele>883</ele>
        <time>2019-11-13T10:25:42Z</time>
      </trkpt>
      <trkpt lat="46.51726" lon="5.85405">
        <ele>885.49</ele>
        <time>2019-11-13T10:25:57Z</time>
      </trkpt>
      <trkpt lat="46.51724" lon="5.85401">
        <ele>885.07</ele>
        <time>2019-11-13T10:26:13Z</time>
      </trkpt>
      <trkpt lat="46.51716" lon="5.85389">
        <ele>885.28</ele>
        <time>2019-11-13T10:26:26Z</time>
      </trkpt>
      <trkpt lat="46.51701" lon="5.85374">
        <ele>886.03</ele>
        <time>2019-11-13T10:26:43Z</time>
      </trkpt>
      <trkpt lat="46.51695" lon="5.85369">
        <ele>885.72</ele>
        <time>2019-11-13T10:26:49Z</time>
      </trkpt>
      <trkpt lat="46.51675" lon="5.85357">
        <ele>885.82</ele>
        <time>2019-11-13T10:27:09Z</time>
      </trkpt>
      <trkpt lat="46.51665" lon="5.85351">
        <ele>884.82</ele>
        <time>2019-11-13T10:27:19Z</time>
      </trkpt>
      <trkpt lat="46.51657" lon="5.85346">
        <ele>884.86</ele>
        <time>2019-11-13T10:27:30Z</time>
      </trkpt>
      <trkpt lat="46.51642" lon="5.85337">
        <ele>885.52</ele>
        <time>2019-11-13T10:27:44Z</time>
      </trkpt>
      <trkpt lat="46.51623" lon="5.85325">
        <ele>885.26</ele>
        <time>2019-11-13T10:28:02Z</time>
      </trkpt>
      <trkpt lat="46.51606" lon="5.8531">
        <ele>885.15</ele>
        <time>2019-11-13T10:28:20Z</time>
      </trkpt>
      <trkpt lat="46.51591" lon="5.85299">
        <ele>885.11</ele>
        <time>2019-11-13T10:28:36Z</time>
      </trkpt>
      <trkpt lat="46.51584" lon="5.85296">
        <ele>885.32</ele>
        <time>2019-11-13T10:28:49Z</time>
      </trkpt>
      <trkpt lat="46.51584" lon="5.85296">
        <ele>884.25</ele>
        <time>2019-11-13T10:28:50Z</time>
      </trkpt>
      <trkpt lat="46.51565" lon="5.85283">
        <ele>884.36</ele>
        <time>2019-11-13T10:29:09Z</time>
      </trkpt>
      <trkpt lat="46.51563" lon="5.85281">
        <ele>884.13</ele>
        <time>2019-11-13T10:29:24Z</time>
      </trkpt>
      <trkpt lat="46.51544" lon="5.85264">
        <ele>883.44</ele>
        <time>2019-11-13T10:29:44Z</time>
      </trkpt>
      <trkpt lat="46.51542" lon="5.85262">
        <ele>883.06</ele>
        <time>2019-11-13T10:29:46Z</time>
      </trkpt>
      <trkpt lat="46.51528" lon="5.85249">
        <ele>883.54</ele>
        <time>2019-11-13T10:30:00Z</time>
      </trkpt>
      <trkpt lat="46.51518" lon="5.85239">
        <ele>883.4</ele>
        <time>2019-11-13T10:30:11Z</time>
      </trkpt>
      <trkpt lat="46.5151" lon="5.85233">
        <ele>883.48</ele>
        <time>2019-11-13T10:30:19Z</time>
      </trkpt>
      <trkpt lat="46.51491" lon="5.85219">
        <ele>884.09</ele>
        <time>2019-11-13T10:30:37Z</time>
      </trkpt>
      <trkpt lat="46.51483" lon="5.85211">
        <ele>885.32</ele>
        <time>2019-11-13T10:30:46Z</time>
      </trkpt>
      <trkpt lat="46.51472" lon="5.85203">
        <ele>885.3</ele>
        <time>2019-11-13T10:31:00Z</time>
      </trkpt>
      <trkpt lat="46.5147" lon="5.85203">
        <ele>885.35</ele>
        <time>2019-11-13T10:31:05Z</time>
      </trkpt>
      <trkpt lat="46.51465" lon="5.85199">
        <ele>885.93</ele>
        <time>2019-11-13T10:31:10Z</time>
      </trkpt>
      <trkpt lat="46.51453" lon="5.85188">
        <ele>885.62</ele>
        <time>2019-11-13T10:31:25Z</time>
      </trkpt>
      <trkpt lat="46.51438" lon="5.85173">
        <ele>887.24</ele>
        <time>2019-11-13T10:31:43Z</time>
      </trkpt>
      <trkpt lat="46.51423" lon="5.85156">
        <ele>886.98</ele>
        <time>2019-11-13T10:32:00Z</time>
      </trkpt>
      <trkpt lat="46.51405" lon="5.85134">
        <ele>887.27</ele>
        <time>2019-11-13T10:32:20Z</time>
      </trkpt>
      <trkpt lat="46.51404" lon="5.85133">
        <ele>887.1</ele>
        <time>2019-11-13T10:32:21Z</time>
      </trkpt>
      <trkpt lat="46.51399" lon="5.85128">
        <ele>886.75</ele>
        <time>2019-11-13T10:32:26Z</time>
      </trkpt>
      <trkpt lat="46.51382" lon="5.85115">
        <ele>886.96</ele>
        <time>2019-11-13T10:32:43Z</time>
      </trkpt>
      <trkpt lat="46.51368" lon="5.85105">
        <ele>886.2</ele>
        <time>2019-11-13T10:32:57Z</time>
      </trkpt>
      <trkpt lat="46.51351" lon="5.85094">
        <ele>886.49</ele>
        <time>2019-11-13T10:33:13Z</time>
      </trkpt>
      <trkpt lat="46.51335" lon="5.85085">
        <ele>886.68</ele>
        <time>2019-11-13T10:33:28Z</time>
      </trkpt>
      <trkpt lat="46.51323" lon="5.85074">
        <ele>886.06</ele>
        <time>2019-11-13T10:33:41Z</time>
      </trkpt>
      <trkpt lat="46.5132" lon="5.85072">
        <ele>886.66</ele>
        <time>2019-11-13T10:33:44Z</time>
      </trkpt>
      <trkpt lat="46.51316" lon="5.85071">
        <ele>886.17</ele>
        <time>2019-11-13T10:33:48Z</time>
      </trkpt>
      <trkpt lat="46.51314" lon="5.85072">
        <ele>886.09</ele>
        <time>2019-11-13T10:33:50Z</time>
      </trkpt>
      <trkpt lat="46.5131" lon="5.85078">
        <ele>886.31</ele>
        <time>2019-11-13T10:34:04Z</time>
      </trkpt>
      <trkpt lat="46.51296" lon="5.85073">
        <ele>885.78</ele>
        <time>2019-11-13T10:34:17Z</time>
      </trkpt>
      <trkpt lat="46.51279" lon="5.85057">
        <ele>886.76</ele>
        <time>2019-11-13T10:34:35Z</time>
      </trkpt>
      <trkpt lat="46.51278" lon="5.85056">
        <ele>886.89</ele>
        <time>2019-11-13T10:34:36Z</time>
      </trkpt>
      <trkpt lat="46.51262" lon="5.85044">
        <ele>887.82</ele>
        <time>2019-11-13T10:34:51Z</time>
      </trkpt>
      <trkpt lat="46.51244" lon="5.85031">
        <ele>888.54</ele>
        <time>2019-11-13T10:35:09Z</time>
      </trkpt>
      <trkpt lat="46.51233" lon="5.85024">
        <ele>888.44</ele>
        <time>2019-11-13T10:35:23Z</time>
      </trkpt>
      <trkpt lat="46.51216" lon="5.85011">
        <ele>888.96</ele>
        <time>2019-11-13T10:35:39Z</time>
      </trkpt>
      <trkpt lat="46.51214" lon="5.85009">
        <ele>888.81</ele>
        <time>2019-11-13T10:35:41Z</time>
      </trkpt>
      <trkpt lat="46.51198" lon="5.84993">
        <ele>889.26</ele>
        <time>2019-11-13T10:35:59Z</time>
      </trkpt>
      <trkpt lat="46.51197" lon="5.84992">
        <ele>889.31</ele>
        <time>2019-11-13T10:36:00Z</time>
      </trkpt>
      <trkpt lat="46.5118" lon="5.84977">
        <ele>890.12</ele>
        <time>2019-11-13T10:36:18Z</time>
      </trkpt>
      <trkpt lat="46.51166" lon="5.84966">
        <ele>889.92</ele>
        <time>2019-11-13T10:36:32Z</time>
      </trkpt>
      <trkpt lat="46.51152" lon="5.84953">
        <ele>889.72</ele>
        <time>2019-11-13T10:36:48Z</time>
      </trkpt>
      <trkpt lat="46.5115" lon="5.84951">
        <ele>889.64</ele>
        <time>2019-11-13T10:36:52Z</time>
      </trkpt>
      <trkpt lat="46.5113" lon="5.84938">
        <ele>890.46</ele>
        <time>2019-11-13T10:37:11Z</time>
      </trkpt>
      <trkpt lat="46.51116" lon="5.84927">
        <ele>890.19</ele>
        <time>2019-11-13T10:37:26Z</time>
      </trkpt>
      <trkpt lat="46.51101" lon="5.84914">
        <ele>890.37</ele>
        <time>2019-11-13T10:37:41Z</time>
      </trkpt>
      <trkpt lat="46.51087" lon="5.84902">
        <ele>890.61</ele>
        <time>2019-11-13T10:37:55Z</time>
      </trkpt>
      <trkpt lat="46.51075" lon="5.84891">
        <ele>891.54</ele>
        <time>2019-11-13T10:38:08Z</time>
      </trkpt>
      <trkpt lat="46.51057" lon="5.84877">
        <ele>891.63</ele>
        <time>2019-11-13T10:38:25Z</time>
      </trkpt>
      <trkpt lat="46.51046" lon="5.84869">
        <ele>891.81</ele>
        <time>2019-11-13T10:38:36Z</time>
      </trkpt>
      <trkpt lat="46.51044" lon="5.84864">
        <ele>890.54</ele>
        <time>2019-11-13T10:38:51Z</time>
      </trkpt>
      <trkpt lat="46.51027" lon="5.84849">
        <ele>892</ele>
        <time>2019-11-13T10:39:10Z</time>
      </trkpt>
      <trkpt lat="46.51011" lon="5.84834">
        <ele>891.3</ele>
        <time>2019-11-13T10:39:26Z</time>
      </trkpt>
      <trkpt lat="46.50995" lon="5.84818">
        <ele>892.39</ele>
        <time>2019-11-13T10:39:43Z</time>
      </trkpt>
      <trkpt lat="46.50984" lon="5.84808">
        <ele>893.03</ele>
        <time>2019-11-13T10:39:54Z</time>
      </trkpt>
      <trkpt lat="46.50967" lon="5.84802">
        <ele>893.05</ele>
        <time>2019-11-13T10:40:10Z</time>
      </trkpt>
      <trkpt lat="46.50965" lon="5.84801">
        <ele>892.97</ele>
        <time>2019-11-13T10:40:12Z</time>
      </trkpt>
      <trkpt lat="46.50949" lon="5.84795">
        <ele>892.59</ele>
        <time>2019-11-13T10:40:28Z</time>
      </trkpt>
      <trkpt lat="46.50942" lon="5.84785">
        <ele>892.52</ele>
        <time>2019-11-13T10:40:36Z</time>
      </trkpt>
      <trkpt lat="46.50941" lon="5.84779">
        <ele>892.99</ele>
        <time>2019-11-13T10:40:51Z</time>
      </trkpt>
      <trkpt lat="46.50935" lon="5.84784">
        <ele>892.97</ele>
        <time>2019-11-13T10:41:09Z</time>
      </trkpt>
      <trkpt lat="46.50936" lon="5.84786">
        <ele>892.34</ele>
        <time>2019-11-13T10:41:12Z</time>
      </trkpt>
      <trkpt lat="46.50932" lon="5.84794">
        <ele>894.11</ele>
        <time>2019-11-13T10:41:23Z</time>
      </trkpt>
      <trkpt lat="46.50929" lon="5.84801">
        <ele>894.15</ele>
        <time>2019-11-13T10:41:33Z</time>
      </trkpt>
      <trkpt lat="46.50925" lon="5.84808">
        <ele>894.39</ele>
        <time>2019-11-13T10:41:58Z</time>
      </trkpt>
      <trkpt lat="46.50925" lon="5.84815">
        <ele>896.68</ele>
        <time>2019-11-13T10:42:08Z</time>
      </trkpt>
      <trkpt lat="46.50917" lon="5.84825">
        <ele>899.7</ele>
        <time>2019-11-13T10:42:26Z</time>
      </trkpt>
      <trkpt lat="46.50918" lon="5.84826">
        <ele>899.92</ele>
        <time>2019-11-13T10:42:29Z</time>
      </trkpt>
      <trkpt lat="46.50912" lon="5.84837">
        <ele>901.36</ele>
        <time>2019-11-13T10:42:50Z</time>
      </trkpt>
      <trkpt lat="46.50912" lon="5.84837">
        <ele>899.84</ele>
        <time>2019-11-13T10:42:52Z</time>
      </trkpt>
      <trkpt lat="46.50909" lon="5.8484">
        <ele>901.06</ele>
        <time>2019-11-13T10:42:58Z</time>
      </trkpt>
      <trkpt lat="46.50906" lon="5.84844">
        <ele>904.07</ele>
        <time>2019-11-13T10:43:13Z</time>
      </trkpt>
      <trkpt lat="46.50904" lon="5.84855">
        <ele>905.87</ele>
        <time>2019-11-13T10:43:31Z</time>
      </trkpt>
      <trkpt lat="46.50896" lon="5.84869">
        <ele>907.87</ele>
        <time>2019-11-13T10:43:53Z</time>
      </trkpt>
      <trkpt lat="46.50888" lon="5.84882">
        <ele>908.33</ele>
        <time>2019-11-13T10:44:12Z</time>
      </trkpt>
      <trkpt lat="46.50886" lon="5.84885">
        <ele>908.02</ele>
        <time>2019-11-13T10:44:30Z</time>
      </trkpt>
      <trkpt lat="46.50884" lon="5.8489">
        <ele>907.75</ele>
        <time>2019-11-13T10:44:53Z</time>
      </trkpt>
      <trkpt lat="46.50876" lon="5.84903">
        <ele>908.31</ele>
        <time>2019-11-13T10:45:18Z</time>
      </trkpt>
      <trkpt lat="46.50872" lon="5.84914">
        <ele>911.72</ele>
        <time>2019-11-13T10:45:36Z</time>
      </trkpt>
      <trkpt lat="46.50866" lon="5.8492">
        <ele>913.36</ele>
        <time>2019-11-13T10:45:45Z</time>
      </trkpt>
      <trkpt lat="46.50855" lon="5.84928">
        <ele>915.18</ele>
        <time>2019-11-13T10:46:03Z</time>
      </trkpt>
      <trkpt lat="46.50849" lon="5.84942">
        <ele>918.25</ele>
        <time>2019-11-13T10:46:23Z</time>
      </trkpt>
      <trkpt lat="46.50846" lon="5.84945">
        <ele>918.59</ele>
        <time>2019-11-13T10:46:32Z</time>
      </trkpt>
      <trkpt lat="46.50844" lon="5.84946">
        <ele>918.21</ele>
        <time>2019-11-13T10:46:34Z</time>
      </trkpt>
      <trkpt lat="46.50836" lon="5.84953">
        <ele>921.7</ele>
        <time>2019-11-13T10:46:52Z</time>
      </trkpt>
      <trkpt lat="46.50826" lon="5.84966">
        <ele>924.84</ele>
        <time>2019-11-13T10:47:13Z</time>
      </trkpt>
      <trkpt lat="46.50821" lon="5.84972">
        <ele>926.91</ele>
        <time>2019-11-13T10:47:35Z</time>
      </trkpt>
      <trkpt lat="46.50814" lon="5.84976">
        <ele>929.32</ele>
        <time>2019-11-13T10:47:54Z</time>
      </trkpt>
      <trkpt lat="46.50806" lon="5.84982">
        <ele>932.26</ele>
        <time>2019-11-13T10:48:16Z</time>
      </trkpt>
      <trkpt lat="46.50794" lon="5.84999">
        <ele>933.75</ele>
        <time>2019-11-13T10:48:37Z</time>
      </trkpt>
      <trkpt lat="46.5079" lon="5.85006">
        <ele>937.03</ele>
        <time>2019-11-13T10:48:51Z</time>
      </trkpt>
      <trkpt lat="46.50789" lon="5.85006">
        <ele>936.79</ele>
        <time>2019-11-13T10:48:54Z</time>
      </trkpt>
      <trkpt lat="46.50784" lon="5.85015">
        <ele>939.75</ele>
        <time>2019-11-13T10:49:16Z</time>
      </trkpt>
      <trkpt lat="46.50785" lon="5.85027">
        <ele>942.64</ele>
        <time>2019-11-13T10:49:38Z</time>
      </trkpt>
      <trkpt lat="46.50785" lon="5.8503">
        <ele>944.17</ele>
        <time>2019-11-13T10:49:58Z</time>
      </trkpt>
      <trkpt lat="46.50781" lon="5.85029">
        <ele>944.23</ele>
        <time>2019-11-13T10:50:20Z</time>
      </trkpt>
      <trkpt lat="46.5078" lon="5.85025">
        <ele>944.56</ele>
        <time>2019-11-13T10:50:44Z</time>
      </trkpt>
      <trkpt lat="46.50783" lon="5.85028">
        <ele>944.87</ele>
        <time>2019-11-13T10:51:11Z</time>
      </trkpt>
      <trkpt lat="46.50782" lon="5.85032">
        <ele>944.03</ele>
        <time>2019-11-13T10:51:31Z</time>
      </trkpt>
      <trkpt lat="46.50784" lon="5.85033">
        <ele>944.68</ele>
        <time>2019-11-13T10:51:58Z</time>
      </trkpt>
      <trkpt lat="46.5078" lon="5.85031">
        <ele>945.74</ele>
        <time>2019-11-13T10:52:26Z</time>
      </trkpt>
      <trkpt lat="46.50774" lon="5.85031">
        <ele>948.52</ele>
        <time>2019-11-13T10:52:47Z</time>
      </trkpt>
      <trkpt lat="46.50768" lon="5.85026">
        <ele>951.79</ele>
        <time>2019-11-13T10:53:02Z</time>
      </trkpt>
      <trkpt lat="46.5076" lon="5.8502">
        <ele>954.61</ele>
        <time>2019-11-13T10:53:20Z</time>
      </trkpt>
      <trkpt lat="46.50757" lon="5.85013">
        <ele>956.27</ele>
        <time>2019-11-13T10:53:44Z</time>
      </trkpt>
      <trkpt lat="46.50755" lon="5.85003">
        <ele>959.47</ele>
        <time>2019-11-13T10:54:00Z</time>
      </trkpt>
      <trkpt lat="46.50753" lon="5.84995">
        <ele>962.64</ele>
        <time>2019-11-13T10:54:12Z</time>
      </trkpt>
      <trkpt lat="46.50752" lon="5.84983">
        <ele>964.51</ele>
        <time>2019-11-13T10:54:34Z</time>
      </trkpt>
      <trkpt lat="46.50754" lon="5.84972">
        <ele>966.55</ele>
        <time>2019-11-13T10:54:51Z</time>
      </trkpt>
      <trkpt lat="46.50755" lon="5.84967">
        <ele>968.94</ele>
        <time>2019-11-13T10:54:59Z</time>
      </trkpt>
      <trkpt lat="46.50761" lon="5.84956">
        <ele>971.6</ele>
        <time>2019-11-13T10:55:19Z</time>
      </trkpt>
      <trkpt lat="46.50761" lon="5.84945">
        <ele>973.58</ele>
        <time>2019-11-13T10:55:37Z</time>
      </trkpt>
      <trkpt lat="46.50764" lon="5.84938">
        <ele>976.05</ele>
        <time>2019-11-13T10:55:54Z</time>
      </trkpt>
      <trkpt lat="46.5077" lon="5.84929">
        <ele>975.77</ele>
        <time>2019-11-13T10:56:14Z</time>
      </trkpt>
      <trkpt lat="46.50771" lon="5.84924">
        <ele>974.12</ele>
        <time>2019-11-13T10:56:33Z</time>
      </trkpt>
      <trkpt lat="46.50772" lon="5.84924">
        <ele>973.6</ele>
        <time>2019-11-13T10:56:56Z</time>
      </trkpt>
      <trkpt lat="46.50772" lon="5.84926">
        <ele>974.48</ele>
        <time>2019-11-13T10:57:24Z</time>
      </trkpt>
      <trkpt lat="46.5077" lon="5.84926">
        <ele>975.11</ele>
        <time>2019-11-13T10:57:40Z</time>
      </trkpt>
      <trkpt lat="46.5077" lon="5.84927">
        <ele>974.44</ele>
        <time>2019-11-13T10:58:02Z</time>
      </trkpt>
      <trkpt lat="46.50773" lon="5.84922">
        <ele>972.76</ele>
        <time>2019-11-13T10:58:29Z</time>
      </trkpt>
      <trkpt lat="46.50779" lon="5.84912">
        <ele>975.67</ele>
        <time>2019-11-13T10:58:44Z</time>
      </trkpt>
      <trkpt lat="46.50781" lon="5.84905">
        <ele>977.87</ele>
        <time>2019-11-13T10:58:58Z</time>
      </trkpt>
      <trkpt lat="46.50781" lon="5.84901">
        <ele>977.8</ele>
        <time>2019-11-13T10:59:17Z</time>
      </trkpt>
      <trkpt lat="46.50774" lon="5.849">
        <ele>977.52</ele>
        <time>2019-11-13T10:59:34Z</time>
      </trkpt>
      <trkpt lat="46.50776" lon="5.84899">
        <ele>977.36</ele>
        <time>2019-11-13T10:59:59Z</time>
      </trkpt>
      <trkpt lat="46.5078" lon="5.84901">
        <ele>977.25</ele>
        <time>2019-11-13T11:00:19Z</time>
      </trkpt>
      <trkpt lat="46.50776" lon="5.84899">
        <ele>976.58</ele>
        <time>2019-11-13T11:00:37Z</time>
      </trkpt>
      <trkpt lat="46.5077" lon="5.84897">
        <ele>975.85</ele>
        <time>2019-11-13T11:00:54Z</time>
      </trkpt>
      <trkpt lat="46.50769" lon="5.84898">
        <ele>976.09</ele>
        <time>2019-11-13T11:01:20Z</time>
      </trkpt>
      <trkpt lat="46.50767" lon="5.84898">
        <ele>974.64</ele>
        <time>2019-11-13T11:01:45Z</time>
      </trkpt>
      <trkpt lat="46.50759" lon="5.849">
        <ele>973.2</ele>
        <time>2019-11-13T11:02:09Z</time>
      </trkpt>
      <trkpt lat="46.50755" lon="5.849">
        <ele>970.4</ele>
        <time>2019-11-13T11:02:18Z</time>
      </trkpt>
      <trkpt lat="46.50743" lon="5.84894">
        <ele>969.64</ele>
        <time>2019-11-13T11:02:38Z</time>
      </trkpt>
      <trkpt lat="46.50733" lon="5.84888">
        <ele>968.22</ele>
        <time>2019-11-13T11:02:51Z</time>
      </trkpt>
      <trkpt lat="46.50718" lon="5.84884">
        <ele>966.3</ele>
        <time>2019-11-13T11:03:08Z</time>
      </trkpt>
      <trkpt lat="46.50715" lon="5.84884">
        <ele>964.61</ele>
        <time>2019-11-13T11:03:11Z</time>
      </trkpt>
      <trkpt lat="46.50701" lon="5.84877">
        <ele>963.39</ele>
        <time>2019-11-13T11:03:29Z</time>
      </trkpt>
      <trkpt lat="46.50688" lon="5.84865">
        <ele>966.05</ele>
        <time>2019-11-13T11:03:49Z</time>
      </trkpt>
      <trkpt lat="46.50675" lon="5.8485">
        <ele>967.24</ele>
        <time>2019-11-13T11:04:09Z</time>
      </trkpt>
      <trkpt lat="46.50667" lon="5.84842">
        <ele>964.51</ele>
        <time>2019-11-13T11:04:26Z</time>
      </trkpt>
      <trkpt lat="46.5066" lon="5.84837">
        <ele>963.23</ele>
        <time>2019-11-13T11:04:45Z</time>
      </trkpt>
      <trkpt lat="46.50656" lon="5.8484">
        <ele>964.31</ele>
        <time>2019-11-13T11:05:13Z</time>
      </trkpt>
      <trkpt lat="46.50652" lon="5.84836">
        <ele>961.12</ele>
        <time>2019-11-13T11:05:27Z</time>
      </trkpt>
      <trkpt lat="46.50645" lon="5.84836">
        <ele>957.83</ele>
        <time>2019-11-13T11:05:41Z</time>
      </trkpt>
      <trkpt lat="46.5064" lon="5.84829">
        <ele>957.45</ele>
        <time>2019-11-13T11:06:00Z</time>
      </trkpt>
      <trkpt lat="46.50639" lon="5.84827">
        <ele>958.71</ele>
        <time>2019-11-13T11:06:14Z</time>
      </trkpt>
      <trkpt lat="46.50637" lon="5.84822">
        <ele>961.93</ele>
        <time>2019-11-13T11:06:27Z</time>
      </trkpt>
      <trkpt lat="46.50637" lon="5.84822">
        <ele>962.16</ele>
        <time>2019-11-13T11:06:28Z</time>
      </trkpt>
      <trkpt lat="46.50634" lon="5.84822">
        <ele>961.16</ele>
        <time>2019-11-13T11:06:49Z</time>
      </trkpt>
      <trkpt lat="46.50634" lon="5.84821">
        <ele>961.15</ele>
        <time>2019-11-13T11:06:50Z</time>
      </trkpt>
      <trkpt lat="46.50633" lon="5.84818">
        <ele>964.16</ele>
        <time>2019-11-13T11:06:56Z</time>
      </trkpt>
      <trkpt lat="46.50634" lon="5.84807">
        <ele>965.47</ele>
        <time>2019-11-13T11:07:19Z</time>
      </trkpt>
      <trkpt lat="46.50633" lon="5.8481">
        <ele>965.11</ele>
        <time>2019-11-13T11:07:45Z</time>
      </trkpt>
      <trkpt lat="46.50633" lon="5.84799">
        <ele>968.54</ele>
        <time>2019-11-13T11:08:05Z</time>
      </trkpt>
      <trkpt lat="46.50629" lon="5.84792">
        <ele>971.54</ele>
        <time>2019-11-13T11:08:20Z</time>
      </trkpt>
      <trkpt lat="46.50625" lon="5.84783">
        <ele>974.57</ele>
        <time>2019-11-13T11:08:36Z</time>
      </trkpt>
      <trkpt lat="46.50621" lon="5.84772">
        <ele>975.25</ele>
        <time>2019-11-13T11:08:53Z</time>
      </trkpt>
      <trkpt lat="46.50625" lon="5.84776">
        <ele>974.98</ele>
        <time>2019-11-13T11:09:17Z</time>
      </trkpt>
      <trkpt lat="46.50624" lon="5.84776">
        <ele>975.37</ele>
        <time>2019-11-13T11:09:37Z</time>
      </trkpt>
      <trkpt lat="46.50612" lon="5.84768">
        <ele>977.25</ele>
        <time>2019-11-13T11:09:57Z</time>
      </trkpt>
      <trkpt lat="46.50601" lon="5.8475">
        <ele>976.74</ele>
        <time>2019-11-13T11:10:16Z</time>
      </trkpt>
      <trkpt lat="46.50598" lon="5.84741">
        <ele>975.11</ele>
        <time>2019-11-13T11:10:25Z</time>
      </trkpt>
      <trkpt lat="46.50586" lon="5.84739">
        <ele>971.67</ele>
        <time>2019-11-13T11:10:46Z</time>
      </trkpt>
      <trkpt lat="46.50575" lon="5.84738">
        <ele>967.98</ele>
        <time>2019-11-13T11:11:08Z</time>
      </trkpt>
      <trkpt lat="46.50563" lon="5.84729">
        <ele>968.6</ele>
        <time>2019-11-13T11:11:29Z</time>
      </trkpt>
      <trkpt lat="46.50556" lon="5.84727">
        <ele>968.17</ele>
        <time>2019-11-13T11:11:37Z</time>
      </trkpt>
      <trkpt lat="46.50555" lon="5.84729">
        <ele>967.74</ele>
        <time>2019-11-13T11:11:41Z</time>
      </trkpt>
      <trkpt lat="46.50557" lon="5.84737">
        <ele>965</ele>
        <time>2019-11-13T11:11:53Z</time>
      </trkpt>
      <trkpt lat="46.50558" lon="5.8474">
        <ele>964.2</ele>
        <time>2019-11-13T11:11:55Z</time>
      </trkpt>
      <trkpt lat="46.50559" lon="5.84752">
        <ele>962.23</ele>
        <time>2019-11-13T11:12:07Z</time>
      </trkpt>
      <trkpt lat="46.50557" lon="5.84754">
        <ele>961.56</ele>
        <time>2019-11-13T11:12:26Z</time>
      </trkpt>
      <trkpt lat="46.50557" lon="5.84765">
        <ele>962.05</ele>
        <time>2019-11-13T11:12:49Z</time>
      </trkpt>
      <trkpt lat="46.50552" lon="5.84789">
        <ele>963.05</ele>
        <time>2019-11-13T11:13:06Z</time>
      </trkpt>
      <trkpt lat="46.50549" lon="5.84796">
        <ele>962.09</ele>
        <time>2019-11-13T11:13:17Z</time>
      </trkpt>
      <trkpt lat="46.50542" lon="5.84804">
        <ele>962.39</ele>
        <time>2019-11-13T11:13:35Z</time>
      </trkpt>
      <trkpt lat="46.50536" lon="5.84808">
        <ele>960.17</ele>
        <time>2019-11-13T11:13:51Z</time>
      </trkpt>
      <trkpt lat="46.50532" lon="5.84809">
        <ele>959.42</ele>
        <time>2019-11-13T11:13:59Z</time>
      </trkpt>
      <trkpt lat="46.50525" lon="5.8481">
        <ele>957.74</ele>
        <time>2019-11-13T11:14:10Z</time>
      </trkpt>
      <trkpt lat="46.50501" lon="5.84812">
        <ele>955.15</ele>
        <time>2019-11-13T11:14:34Z</time>
      </trkpt>
      <trkpt lat="46.50499" lon="5.84813">
        <ele>955</ele>
        <time>2019-11-13T11:14:37Z</time>
      </trkpt>
      <trkpt lat="46.50493" lon="5.84815">
        <ele>954.23</ele>
        <time>2019-11-13T11:14:44Z</time>
      </trkpt>
      <trkpt lat="46.5048" lon="5.84809">
        <ele>950.73</ele>
        <time>2019-11-13T11:15:02Z</time>
      </trkpt>
      <trkpt lat="46.50476" lon="5.84806">
        <ele>949.81</ele>
        <time>2019-11-13T11:15:08Z</time>
      </trkpt>
      <trkpt lat="46.50461" lon="5.84806">
        <ele>948.61</ele>
        <time>2019-11-13T11:15:22Z</time>
      </trkpt>
      <trkpt lat="46.50458" lon="5.84807">
        <ele>948.28</ele>
        <time>2019-11-13T11:15:25Z</time>
      </trkpt>
      <trkpt lat="46.50439" lon="5.848">
        <ele>947.16</ele>
        <time>2019-11-13T11:15:47Z</time>
      </trkpt>
      <trkpt lat="46.50432" lon="5.84797">
        <ele>947.07</ele>
        <time>2019-11-13T11:15:54Z</time>
      </trkpt>
      <trkpt lat="46.5041" lon="5.84789">
        <ele>945.07</ele>
        <time>2019-11-13T11:16:13Z</time>
      </trkpt>
      <trkpt lat="46.50392" lon="5.84775">
        <ele>941.99</ele>
        <time>2019-11-13T11:16:33Z</time>
      </trkpt>
      <trkpt lat="46.50372" lon="5.84764">
        <ele>940.05</ele>
        <time>2019-11-13T11:16:53Z</time>
      </trkpt>
      <trkpt lat="46.50371" lon="5.84763">
        <ele>940.05</ele>
        <time>2019-11-13T11:16:54Z</time>
      </trkpt>
      <trkpt lat="46.50354" lon="5.84768">
        <ele>937.38</ele>
        <time>2019-11-13T11:17:16Z</time>
      </trkpt>
      <trkpt lat="46.50337" lon="5.84765">
        <ele>935.05</ele>
        <time>2019-11-13T11:17:38Z</time>
      </trkpt>
      <trkpt lat="46.50325" lon="5.8476">
        <ele>931.89</ele>
        <time>2019-11-13T11:17:55Z</time>
      </trkpt>
      <trkpt lat="46.50321" lon="5.84756">
        <ele>930.17</ele>
        <time>2019-11-13T11:18:01Z</time>
      </trkpt>
      <trkpt lat="46.50303" lon="5.8474">
        <ele>927.93</ele>
        <time>2019-11-13T11:18:22Z</time>
      </trkpt>
      <trkpt lat="46.50289" lon="5.84728">
        <ele>925.15</ele>
        <time>2019-11-13T11:18:43Z</time>
      </trkpt>
      <trkpt lat="46.50281" lon="5.8472">
        <ele>922</ele>
        <time>2019-11-13T11:19:00Z</time>
      </trkpt>
      <trkpt lat="46.50279" lon="5.84719">
        <ele>921.39</ele>
        <time>2019-11-13T11:19:05Z</time>
      </trkpt>
      <trkpt lat="46.50262" lon="5.84706">
        <ele>919.12</ele>
        <time>2019-11-13T11:19:21Z</time>
      </trkpt>
      <trkpt lat="46.50254" lon="5.847">
        <ele>918.34</ele>
        <time>2019-11-13T11:19:34Z</time>
      </trkpt>
      <trkpt lat="46.50238" lon="5.84699">
        <ele>915.32</ele>
        <time>2019-11-13T11:19:52Z</time>
      </trkpt>
      <trkpt lat="46.50221" lon="5.84702">
        <ele>912.29</ele>
        <time>2019-11-13T11:20:09Z</time>
      </trkpt>
      <trkpt lat="46.50208" lon="5.847">
        <ele>912.73</ele>
        <time>2019-11-13T11:20:28Z</time>
      </trkpt>
      <trkpt lat="46.50204" lon="5.84693">
        <ele>913.34</ele>
        <time>2019-11-13T11:20:34Z</time>
      </trkpt>
      <trkpt lat="46.50195" lon="5.84674">
        <ele>912.98</ele>
        <time>2019-11-13T11:20:47Z</time>
      </trkpt>
      <trkpt lat="46.50193" lon="5.84646">
        <ele>914.36</ele>
        <time>2019-11-13T11:21:01Z</time>
      </trkpt>
      <trkpt lat="46.50196" lon="5.84628">
        <ele>914.54</ele>
        <time>2019-11-13T11:21:12Z</time>
      </trkpt>
      <trkpt lat="46.50198" lon="5.84623">
        <ele>914.39</ele>
        <time>2019-11-13T11:21:16Z</time>
      </trkpt>
      <trkpt lat="46.50206" lon="5.84607">
        <ele>914.28</ele>
        <time>2019-11-13T11:21:31Z</time>
      </trkpt>
      <trkpt lat="46.50214" lon="5.84594">
        <ele>911.92</ele>
        <time>2019-11-13T11:21:47Z</time>
      </trkpt>
      <trkpt lat="46.5022" lon="5.8459">
        <ele>911.56</ele>
        <time>2019-11-13T11:21:55Z</time>
      </trkpt>
      <trkpt lat="46.50231" lon="5.84585">
        <ele>908.11</ele>
        <time>2019-11-13T11:22:12Z</time>
      </trkpt>
      <trkpt lat="46.50245" lon="5.84577">
        <ele>904.93</ele>
        <time>2019-11-13T11:22:28Z</time>
      </trkpt>
      <trkpt lat="46.50259" lon="5.84565">
        <ele>901.57</ele>
        <time>2019-11-13T11:22:44Z</time>
      </trkpt>
      <trkpt lat="46.50268" lon="5.84545">
        <ele>898.44</ele>
        <time>2019-11-13T11:23:01Z</time>
      </trkpt>
      <trkpt lat="46.50266" lon="5.84512">
        <ele>896.16</ele>
        <time>2019-11-13T11:23:17Z</time>
      </trkpt>
      <trkpt lat="46.50267" lon="5.84495">
        <ele>893.94</ele>
        <time>2019-11-13T11:23:31Z</time>
      </trkpt>
      <trkpt lat="46.50273" lon="5.8448">
        <ele>892.79</ele>
        <time>2019-11-13T11:23:41Z</time>
      </trkpt>
      <trkpt lat="46.50279" lon="5.84472">
        <ele>891.39</ele>
        <time>2019-11-13T11:23:49Z</time>
      </trkpt>
      <trkpt lat="46.50288" lon="5.84455">
        <ele>889.21</ele>
        <time>2019-11-13T11:24:03Z</time>
      </trkpt>
      <trkpt lat="46.50295" lon="5.84445">
        <ele>888.49</ele>
        <time>2019-11-13T11:24:13Z</time>
      </trkpt>
      <trkpt lat="46.5031" lon="5.84423">
        <ele>886.22</ele>
        <time>2019-11-13T11:24:29Z</time>
      </trkpt>
      <trkpt lat="46.50318" lon="5.84412">
        <ele>885.41</ele>
        <time>2019-11-13T11:24:43Z</time>
      </trkpt>
      <trkpt lat="46.5032" lon="5.84406">
        <ele>884.37</ele>
        <time>2019-11-13T11:24:53Z</time>
      </trkpt>
      <trkpt lat="46.50322" lon="5.84393">
        <ele>884.72</ele>
        <time>2019-11-13T11:25:07Z</time>
      </trkpt>
      <trkpt lat="46.50329" lon="5.8438">
        <ele>883.72</ele>
        <time>2019-11-13T11:25:22Z</time>
      </trkpt>
      <trkpt lat="46.50337" lon="5.84366">
        <ele>883.68</ele>
        <time>2019-11-13T11:25:34Z</time>
      </trkpt>
      <trkpt lat="46.50342" lon="5.84355">
        <ele>883.4</ele>
        <time>2019-11-13T11:25:40Z</time>
      </trkpt>
      <trkpt lat="46.50348" lon="5.84346">
        <ele>882.88</ele>
        <time>2019-11-13T11:25:48Z</time>
      </trkpt>
      <trkpt lat="46.50358" lon="5.84331">
        <ele>880.79</ele>
        <time>2019-11-13T11:26:03Z</time>
      </trkpt>
      <trkpt lat="46.50359" lon="5.84328">
        <ele>880.64</ele>
        <time>2019-11-13T11:26:05Z</time>
      </trkpt>
      <trkpt lat="46.50365" lon="5.84313">
        <ele>878.92</ele>
        <time>2019-11-13T11:26:20Z</time>
      </trkpt>
      <trkpt lat="46.50372" lon="5.84291">
        <ele>878.31</ele>
        <time>2019-11-13T11:26:37Z</time>
      </trkpt>
      <trkpt lat="46.50379" lon="5.84264">
        <ele>877.15</ele>
        <time>2019-11-13T11:26:54Z</time>
      </trkpt>
      <trkpt lat="46.50389" lon="5.84233">
        <ele>876.3</ele>
        <time>2019-11-13T11:27:13Z</time>
      </trkpt>
      <trkpt lat="46.50401" lon="5.84207">
        <ele>875.91</ele>
        <time>2019-11-13T11:27:31Z</time>
      </trkpt>
      <trkpt lat="46.50402" lon="5.84205">
        <ele>875.27</ele>
        <time>2019-11-13T11:27:33Z</time>
      </trkpt>
      <trkpt lat="46.5041" lon="5.8419">
        <ele>875.8</ele>
        <time>2019-11-13T11:27:45Z</time>
      </trkpt>
      <trkpt lat="46.50417" lon="5.84175">
        <ele>876.68</ele>
        <time>2019-11-13T11:28:00Z</time>
      </trkpt>
      <trkpt lat="46.50422" lon="5.84166">
        <ele>876.67</ele>
        <time>2019-11-13T11:28:21Z</time>
      </trkpt>
      <trkpt lat="46.50425" lon="5.84159">
        <ele>876.17</ele>
        <time>2019-11-13T11:28:26Z</time>
      </trkpt>
      <trkpt lat="46.50427" lon="5.84154">
        <ele>875.79</ele>
        <time>2019-11-13T11:28:30Z</time>
      </trkpt>
      <trkpt lat="46.50444" lon="5.8412">
        <ele>875.86</ele>
        <time>2019-11-13T11:28:54Z</time>
      </trkpt>
      <trkpt lat="46.50454" lon="5.84117">
        <ele>875.58</ele>
        <time>2019-11-13T11:29:06Z</time>
      </trkpt>
      <trkpt lat="46.50457" lon="5.84116">
        <ele>876.17</ele>
        <time>2019-11-13T11:29:09Z</time>
      </trkpt>
      <trkpt lat="46.50474" lon="5.84124">
        <ele>876.12</ele>
        <time>2019-11-13T11:29:25Z</time>
      </trkpt>
      <trkpt lat="46.50489" lon="5.84132">
        <ele>876.52</ele>
        <time>2019-11-13T11:29:40Z</time>
      </trkpt>
      <trkpt lat="46.50505" lon="5.84139">
        <ele>876.25</ele>
        <time>2019-11-13T11:29:55Z</time>
      </trkpt>
      <trkpt lat="46.50518" lon="5.84144">
        <ele>876.94</ele>
        <time>2019-11-13T11:30:07Z</time>
      </trkpt>
      <trkpt lat="46.50543" lon="5.84149">
        <ele>876.92</ele>
        <time>2019-11-13T11:30:25Z</time>
      </trkpt>
      <trkpt lat="46.50562" lon="5.8415">
        <ele>876.22</ele>
        <time>2019-11-13T11:30:41Z</time>
      </trkpt>
      <trkpt lat="46.50579" lon="5.84152">
        <ele>876.37</ele>
        <time>2019-11-13T11:30:54Z</time>
      </trkpt>
      <trkpt lat="46.50596" lon="5.84153">
        <ele>875.58</ele>
        <time>2019-11-13T11:31:08Z</time>
      </trkpt>
      <trkpt lat="46.50614" lon="5.84155">
        <ele>875.95</ele>
        <time>2019-11-13T11:31:22Z</time>
      </trkpt>
      <trkpt lat="46.50632" lon="5.84157">
        <ele>877.23</ele>
        <time>2019-11-13T11:31:37Z</time>
      </trkpt>
      <trkpt lat="46.50648" lon="5.84159">
        <ele>878.06</ele>
        <time>2019-11-13T11:31:52Z</time>
      </trkpt>
      <trkpt lat="46.50664" lon="5.8416">
        <ele>878.18</ele>
        <time>2019-11-13T11:32:06Z</time>
      </trkpt>
      <trkpt lat="46.50674" lon="5.84157">
        <ele>877.48</ele>
        <time>2019-11-13T11:32:17Z</time>
      </trkpt>
      <trkpt lat="46.50676" lon="5.84155">
        <ele>877.86</ele>
        <time>2019-11-13T11:32:19Z</time>
      </trkpt>
      <trkpt lat="46.50677" lon="5.84153">
        <ele>877.6</ele>
        <time>2019-11-13T11:32:21Z</time>
      </trkpt>
      <trkpt lat="46.50681" lon="5.84149">
        <ele>878.11</ele>
        <time>2019-11-13T11:32:25Z</time>
      </trkpt>
      <trkpt lat="46.50692" lon="5.84126">
        <ele>880.07</ele>
        <time>2019-11-13T11:32:41Z</time>
      </trkpt>
      <trkpt lat="46.50702" lon="5.84109">
        <ele>882.47</ele>
        <time>2019-11-13T11:32:54Z</time>
      </trkpt>
      <trkpt lat="46.50711" lon="5.84088">
        <ele>883.77</ele>
        <time>2019-11-13T11:33:10Z</time>
      </trkpt>
      <trkpt lat="46.50718" lon="5.84074">
        <ele>884.95</ele>
        <time>2019-11-13T11:33:20Z</time>
      </trkpt>
      <trkpt lat="46.50722" lon="5.84065">
        <ele>885.48</ele>
        <time>2019-11-13T11:33:26Z</time>
      </trkpt>
      <trkpt lat="46.50727" lon="5.84056">
        <ele>886.36</ele>
        <time>2019-11-13T11:33:32Z</time>
      </trkpt>
      <trkpt lat="46.5073" lon="5.8405">
        <ele>887.51</ele>
        <time>2019-11-13T11:33:38Z</time>
      </trkpt>
      <trkpt lat="46.50729" lon="5.8405">
        <ele>886.21</ele>
        <time>2019-11-13T11:33:43Z</time>
      </trkpt>
      <trkpt lat="46.50726" lon="5.84054">
        <ele>886.76</ele>
        <time>2019-11-13T11:34:01Z</time>
      </trkpt>
      <trkpt lat="46.50726" lon="5.84054">
        <ele>886.5</ele>
        <time>2019-11-13T11:34:23Z</time>
      </trkpt>
      <trkpt lat="46.50726" lon="5.84055">
        <ele>885.83</ele>
        <time>2019-11-13T11:34:47Z</time>
      </trkpt>
      <trkpt lat="46.50732" lon="5.84043">
        <ele>887.27</ele>
        <time>2019-11-13T11:35:02Z</time>
      </trkpt>
      <trkpt lat="46.50742" lon="5.84024">
        <ele>889.88</ele>
        <time>2019-11-13T11:35:16Z</time>
      </trkpt>
      <trkpt lat="46.50752" lon="5.84003">
        <ele>891.22</ele>
        <time>2019-11-13T11:35:32Z</time>
      </trkpt>
      <trkpt lat="46.50753" lon="5.84004">
        <ele>891.18</ele>
        <time>2019-11-13T11:35:52Z</time>
      </trkpt>
      <trkpt lat="46.50752" lon="5.84003">
        <ele>891.34</ele>
        <time>2019-11-13T11:36:13Z</time>
      </trkpt>
      <trkpt lat="46.50753" lon="5.84001">
        <ele>891.43</ele>
        <time>2019-11-13T11:36:28Z</time>
      </trkpt>
      <trkpt lat="46.50754" lon="5.83998">
        <ele>891.46</ele>
        <time>2019-11-13T11:36:42Z</time>
      </trkpt>
      <trkpt lat="46.50755" lon="5.83997">
        <ele>891.67</ele>
        <time>2019-11-13T11:37:18Z</time>
      </trkpt>
      <trkpt lat="46.50755" lon="5.83997">
        <ele>891.67</ele>
        <time>2019-11-13T11:37:31Z</time>
      </trkpt>
      <trkpt lat="46.50759" lon="5.83986">
        <ele>893.16</ele>
        <time>2019-11-13T11:37:44Z</time>
      </trkpt>
      <trkpt lat="46.50761" lon="5.83981">
        <ele>893.36</ele>
        <time>2019-11-13T11:38:00Z</time>
      </trkpt>
      <trkpt lat="46.50765" lon="5.83974">
        <ele>894.33</ele>
        <time>2019-11-13T11:38:10Z</time>
      </trkpt>
      <trkpt lat="46.50767" lon="5.83969">
        <ele>894.67</ele>
        <time>2019-11-13T11:38:15Z</time>
      </trkpt>
      <trkpt lat="46.5077" lon="5.83964">
        <ele>895.16</ele>
        <time>2019-11-13T11:38:19Z</time>
      </trkpt>
      <trkpt lat="46.50777" lon="5.83952">
        <ele>895.95</ele>
        <time>2019-11-13T11:38:37Z</time>
      </trkpt>
      <trkpt lat="46.50778" lon="5.8395">
        <ele>896.25</ele>
        <time>2019-11-13T11:38:45Z</time>
      </trkpt>
      <trkpt lat="46.5078" lon="5.83947">
        <ele>895.79</ele>
        <time>2019-11-13T11:38:58Z</time>
      </trkpt>
      <trkpt lat="46.50782" lon="5.83945">
        <ele>895.9</ele>
        <time>2019-11-13T11:39:23Z</time>
      </trkpt>
      <trkpt lat="46.50786" lon="5.83937">
        <ele>896.92</ele>
        <time>2019-11-13T11:39:48Z</time>
      </trkpt>
      <trkpt lat="46.5079" lon="5.83929">
        <ele>897.12</ele>
        <time>2019-11-13T11:40:00Z</time>
      </trkpt>
      <trkpt lat="46.50793" lon="5.83922">
        <ele>897.7</ele>
        <time>2019-11-13T11:40:18Z</time>
      </trkpt>
      <trkpt lat="46.50792" lon="5.83922">
        <ele>897.85</ele>
        <time>2019-11-13T11:40:24Z</time>
      </trkpt>
      <trkpt lat="46.50793" lon="5.83918">
        <ele>897.65</ele>
        <time>2019-11-13T11:40:27Z</time>
      </trkpt>
      <trkpt lat="46.50794" lon="5.83913">
        <ele>897.5</ele>
        <time>2019-11-13T11:40:31Z</time>
      </trkpt>
      <trkpt lat="46.50801" lon="5.83893">
        <ele>899.03</ele>
        <time>2019-11-13T11:40:46Z</time>
      </trkpt>
      <trkpt lat="46.5081" lon="5.83875">
        <ele>900</ele>
        <time>2019-11-13T11:41:01Z</time>
      </trkpt>
      <trkpt lat="46.50812" lon="5.83871">
        <ele>900.39</ele>
        <time>2019-11-13T11:41:19Z</time>
      </trkpt>
      <trkpt lat="46.5082" lon="5.83856">
        <ele>902.25</ele>
        <time>2019-11-13T11:41:36Z</time>
      </trkpt>
      <trkpt lat="46.50831" lon="5.83844">
        <ele>903.52</ele>
        <time>2019-11-13T11:41:51Z</time>
      </trkpt>
      <trkpt lat="46.50834" lon="5.83842">
        <ele>903.13</ele>
        <time>2019-11-13T11:42:06Z</time>
      </trkpt>
      <trkpt lat="46.50841" lon="5.83844">
        <ele>903.77</ele>
        <time>2019-11-13T11:42:20Z</time>
      </trkpt>
      <trkpt lat="46.50842" lon="5.83845">
        <ele>904.06</ele>
        <time>2019-11-13T11:42:35Z</time>
      </trkpt>
      <trkpt lat="46.50842" lon="5.83842">
        <ele>904.37</ele>
        <time>2019-11-13T11:42:48Z</time>
      </trkpt>
      <trkpt lat="46.50844" lon="5.83842">
        <ele>904.52</ele>
        <time>2019-11-13T11:43:02Z</time>
      </trkpt>
      <trkpt lat="46.50848" lon="5.83846">
        <ele>904.89</ele>
        <time>2019-11-13T11:43:12Z</time>
      </trkpt>
      <trkpt lat="46.5086" lon="5.83846">
        <ele>905.29</ele>
        <time>2019-11-13T11:43:25Z</time>
      </trkpt>
      <trkpt lat="46.50862" lon="5.83846">
        <ele>905.22</ele>
        <time>2019-11-13T11:43:27Z</time>
      </trkpt>
      <trkpt lat="46.50871" lon="5.83838">
        <ele>906.41</ele>
        <time>2019-11-13T11:43:40Z</time>
      </trkpt>
      <trkpt lat="46.50877" lon="5.83833">
        <ele>907</ele>
        <time>2019-11-13T11:43:50Z</time>
      </trkpt>
      <trkpt lat="46.5089" lon="5.83822">
        <ele>906.09</ele>
        <time>2019-11-13T11:44:05Z</time>
      </trkpt>
      <trkpt lat="46.50893" lon="5.83819">
        <ele>905.67</ele>
        <time>2019-11-13T11:44:10Z</time>
      </trkpt>
      <trkpt lat="46.50897" lon="5.83818">
        <ele>905.85</ele>
        <time>2019-11-13T11:44:14Z</time>
      </trkpt>
      <trkpt lat="46.50911" lon="5.83798">
        <ele>905.31</ele>
        <time>2019-11-13T11:44:33Z</time>
      </trkpt>
      <trkpt lat="46.50928" lon="5.83781">
        <ele>905.04</ele>
        <time>2019-11-13T11:44:52Z</time>
      </trkpt>
      <trkpt lat="46.50942" lon="5.83759">
        <ele>904.75</ele>
        <time>2019-11-13T11:45:11Z</time>
      </trkpt>
      <trkpt lat="46.50943" lon="5.83755">
        <ele>904.74</ele>
        <time>2019-11-13T11:45:14Z</time>
      </trkpt>
      <trkpt lat="46.50947" lon="5.83746">
        <ele>904.91</ele>
        <time>2019-11-13T11:45:21Z</time>
      </trkpt>
      <trkpt lat="46.50949" lon="5.83743">
        <ele>905.03</ele>
        <time>2019-11-13T11:45:24Z</time>
      </trkpt>
      <trkpt lat="46.50955" lon="5.83734">
        <ele>905.19</ele>
        <time>2019-11-13T11:45:37Z</time>
      </trkpt>
      <trkpt lat="46.50966" lon="5.83722">
        <ele>906.95</ele>
        <time>2019-11-13T11:45:53Z</time>
      </trkpt>
      <trkpt lat="46.50976" lon="5.83714">
        <ele>907.96</ele>
        <time>2019-11-13T11:46:05Z</time>
      </trkpt>
      <trkpt lat="46.50985" lon="5.83708">
        <ele>908.74</ele>
        <time>2019-11-13T11:46:19Z</time>
      </trkpt>
      <trkpt lat="46.50997" lon="5.83708">
        <ele>909.55</ele>
        <time>2019-11-13T11:46:31Z</time>
      </trkpt>
      <trkpt lat="46.51011" lon="5.83713">
        <ele>911.31</ele>
        <time>2019-11-13T11:46:45Z</time>
      </trkpt>
      <trkpt lat="46.51025" lon="5.83722">
        <ele>912.58</ele>
        <time>2019-11-13T11:47:00Z</time>
      </trkpt>
      <trkpt lat="46.51039" lon="5.83731">
        <ele>913.3</ele>
        <time>2019-11-13T11:47:15Z</time>
      </trkpt>
      <trkpt lat="46.51054" lon="5.83741">
        <ele>914.05</ele>
        <time>2019-11-13T11:47:30Z</time>
      </trkpt>
      <trkpt lat="46.51069" lon="5.83746">
        <ele>914.99</ele>
        <time>2019-11-13T11:47:44Z</time>
      </trkpt>
      <trkpt lat="46.51086" lon="5.83752">
        <ele>915.75</ele>
        <time>2019-11-13T11:48:01Z</time>
      </trkpt>
      <trkpt lat="46.511" lon="5.83752">
        <ele>915.13</ele>
        <time>2019-11-13T11:48:14Z</time>
      </trkpt>
      <trkpt lat="46.51101" lon="5.83752">
        <ele>915.1</ele>
        <time>2019-11-13T11:48:15Z</time>
      </trkpt>
      <trkpt lat="46.51103" lon="5.83752">
        <ele>915.22</ele>
        <time>2019-11-13T11:48:17Z</time>
      </trkpt>
      <trkpt lat="46.51112" lon="5.83767">
        <ele>915.67</ele>
        <time>2019-11-13T11:48:32Z</time>
      </trkpt>
      <trkpt lat="46.51113" lon="5.83768">
        <ele>915.11</ele>
        <time>2019-11-13T11:48:33Z</time>
      </trkpt>
      <trkpt lat="46.51127" lon="5.83784">
        <ele>913.56</ele>
        <time>2019-11-13T11:48:51Z</time>
      </trkpt>
      <trkpt lat="46.51148" lon="5.8379">
        <ele>912.78</ele>
        <time>2019-11-13T11:49:09Z</time>
      </trkpt>
      <trkpt lat="46.5116" lon="5.83792">
        <ele>912.6</ele>
        <time>2019-11-13T11:49:22Z</time>
      </trkpt>
      <trkpt lat="46.51176" lon="5.83789">
        <ele>912.32</ele>
        <time>2019-11-13T11:49:36Z</time>
      </trkpt>
      <trkpt lat="46.51188" lon="5.83795">
        <ele>912.13</ele>
        <time>2019-11-13T11:49:50Z</time>
      </trkpt>
      <trkpt lat="46.51195" lon="5.8379">
        <ele>914.67</ele>
        <time>2019-11-13T11:50:04Z</time>
      </trkpt>
      <trkpt lat="46.51197" lon="5.83794">
        <ele>915.22</ele>
        <time>2019-11-13T11:50:23Z</time>
      </trkpt>
      <trkpt lat="46.51203" lon="5.83792">
        <ele>916.46</ele>
        <time>2019-11-13T11:50:40Z</time>
      </trkpt>
      <trkpt lat="46.51198" lon="5.83803">
        <ele>914.45</ele>
        <time>2019-11-13T11:51:32Z</time>
      </trkpt>
      <trkpt lat="46.51202" lon="5.83803">
        <ele>914.8</ele>
        <time>2019-11-13T11:51:36Z</time>
      </trkpt>
      <trkpt lat="46.51197" lon="5.83816">
        <ele>911.97</ele>
        <time>2019-11-13T11:51:50Z</time>
      </trkpt>
      <trkpt lat="46.51194" lon="5.83821">
        <ele>912.02</ele>
        <time>2019-11-13T11:51:56Z</time>
      </trkpt>
      <trkpt lat="46.51195" lon="5.83838">
        <ele>909.4</ele>
        <time>2019-11-13T11:53:47Z</time>
      </trkpt>
      <trkpt lat="46.51192" lon="5.83852">
        <ele>908.36</ele>
        <time>2019-11-13T11:53:55Z</time>
      </trkpt>
    </trkseg>
  </trk>
</gpx>